Wetterdaten: Freitag, 24.04.2026
Datum Zeit Temp. Aussen Temp. o. S. Temp +5cm Feuchte Auss Luftdruck Regen Sonnenschein Solar Windböen Empfang
24.04.2026 00:00 10,7 °C 9,4 °C 6,1 °C 72 % 1026,7 hPa 0,0 l/m² 0 min 0 W/m² 16,1 km/h (3 Bft) 93,62 %
24.04.2026 00:02 10,7 °C 9,4 °C 6,1 °C 72 % 1026,7 hPa 0,0 l/m² 0 min 0 W/m² 3,2 km/h (1 Bft) 97,30 %
24.04.2026 00:04 10,6 °C 9,4 °C 6,1 °C 72 % 1026,7 hPa 0,0 l/m² 0 min 0 W/m² 12,9 km/h (3 Bft) 98,00 %
24.04.2026 00:07 10,6 °C 8,9 °C 6,1 °C 73 % 1026,8 hPa 0,0 l/m² 0 min 0 W/m² 9,7 km/h (2 Bft) 97,18 %
24.04.2026 00:08 10,5 °C 8,9 °C 6,1 °C 73 % 1026,8 hPa 0,0 l/m² 0 min 0 W/m² 6,4 km/h (2 Bft) 95,83 %
24.04.2026 00:14 10,4 °C 8,9 °C 6,1 °C 73 % 1026,8 hPa 0,0 l/m² 0 min 0 W/m² 9,7 km/h (2 Bft) 97,87 %
24.04.2026 00:16 10,3 °C 8,9 °C 6,1 °C 73 % 1026,8 hPa 0,0 l/m² 0 min 0 W/m² 9,7 km/h (2 Bft) 94,29 %
24.04.2026 00:18 10,3 °C 8,9 °C 6,1 °C 74 % 1026,8 hPa 0,0 l/m² 0 min 0 W/m² 3,2 km/h (1 Bft) 97,87 %
24.04.2026 00:20 10,3 °C 8,9 °C 6,1 °C 74 % 1026,8 hPa 0,0 l/m² 0 min 0 W/m² 3,2 km/h (1 Bft) 97,87 %
24.04.2026 00:22 10,2 °C 8,9 °C 6,1 °C 74 % 1026,7 hPa 0,0 l/m² 0 min 0 W/m² 0,0 km/h (0 Bft) 100,00 %
24.04.2026 00:24 10,2 °C 8,9 °C 5,6 °C 74 % 1026,7 hPa 0,0 l/m² 0 min 0 W/m² 0,0 km/h (0 Bft) 52,38 %
24.04.2026 00:26 10,1 °C 8,9 °C 5,6 °C 75 % 1026,7 hPa 0,0 l/m² 0 min 0 W/m² 3,2 km/h (1 Bft) 100,00 %
24.04.2026 00:28 10,1 °C 8,9 °C 5,6 °C 75 % 1026,6 hPa 0,0 l/m² 0 min 0 W/m² 3,2 km/h (1 Bft) 100,00 %
24.04.2026 00:30 10,1 °C 8,9 °C 5,6 °C 75 % 1026,6 hPa 0,0 l/m² 0 min 0 W/m² 3,2 km/h (1 Bft) 100,00 %
24.04.2026 00:32 10,0 °C 8,9 °C 5,6 °C 75 % 1026,6 hPa 0,0 l/m² 0 min 0 W/m² 3,2 km/h (1 Bft) 100,00 %
24.04.2026 00:34 9,9 °C 8,9 °C 5,6 °C 76 % 1026,6 hPa 0,0 l/m² 0 min 0 W/m² 3,2 km/h (1 Bft) 100,00 %
24.04.2026 00:36 9,9 °C 8,9 °C 5,6 °C 76 % 1026,5 hPa 0,0 l/m² 0 min 0 W/m² 3,2 km/h (1 Bft) 97,87 %
24.04.2026 00:38 9,9 °C 8,3 °C 5,6 °C 76 % 1026,5 hPa 0,0 l/m² 0 min 0 W/m² 9,7 km/h (2 Bft) 100,00 %
24.04.2026 00:40 9,8 °C 8,3 °C 5,6 °C 76 % 1026,5 hPa 0,0 l/m² 0 min 0 W/m² 3,2 km/h (1 Bft) 100,00 %
24.04.2026 00:42 9,8 °C 8,3 °C 5,6 °C 77 % 1026,6 hPa 0,0 l/m² 0 min 0 W/m² 6,4 km/h (2 Bft) 100,00 %
24.04.2026 00:44 9,8 °C 8,3 °C 5,6 °C 77 % 1026,6 hPa 0,0 l/m² 0 min 0 W/m² 6,4 km/h (2 Bft) 100,00 %
24.04.2026 00:46 9,7 °C 8,3 °C 5,6 °C 78 % 1026,5 hPa 0,0 l/m² 0 min 0 W/m² 6,4 km/h (2 Bft) 100,00 %
24.04.2026 00:48 9,7 °C 8,3 °C 5,6 °C 78 % 1026,5 hPa 0,0 l/m² 0 min 0 W/m² 16,1 km/h (3 Bft) 100,00 %
24.04.2026 00:50 9,7 °C 8,3 °C 5,6 °C 78 % 1026,6 hPa 0,0 l/m² 0 min 0 W/m² 9,7 km/h (2 Bft) 100,00 %
24.04.2026 00:52 9,6 °C 8,3 °C 5,6 °C 78 % 1026,6 hPa 0,0 l/m² 0 min 0 W/m² 12,9 km/h (3 Bft) 100,00 %
24.04.2026 00:54 9,6 °C 8,3 °C 5,6 °C 78 % 1026,7 hPa 0,0 l/m² 0 min 0 W/m² 6,4 km/h (2 Bft) 100,00 %
24.04.2026 00:56 9,6 °C 8,3 °C 5,6 °C 79 % 1026,7 hPa 0,0 l/m² 0 min 0 W/m² 9,7 km/h (2 Bft) 97,87 %
24.04.2026 00:58 9,6 °C 8,3 °C 5,6 °C 79 % 1026,7 hPa 0,0 l/m² 0 min 0 W/m² 12,9 km/h (3 Bft) 97,83 %
24.04.2026 01:00 9,6 °C 8,3 °C 5,6 °C 79 % 1026,6 hPa 0,0 l/m² 0 min 0 W/m² 3,2 km/h (1 Bft) 97,37 %
24.04.2026 01:02 9,5 °C 8,3 °C 5,6 °C 79 % 1026,6 hPa 0,0 l/m² 0 min 0 W/m² 6,4 km/h (2 Bft) 100,00 %
24.04.2026 01:04 9,5 °C 8,3 °C 5,0 °C 79 % 1026,5 hPa 0,0 l/m² 0 min 0 W/m² 3,2 km/h (1 Bft) 100,00 %
24.04.2026 01:06 9,4 °C 8,3 °C 5,6 °C 79 % 1026,5 hPa 0,0 l/m² 0 min 0 W/m² 3,2 km/h (1 Bft) 100,00 %
24.04.2026 01:08 9,4 °C 8,3 °C 5,0 °C 80 % 1026,5 hPa 0,0 l/m² 0 min 0 W/m² 9,7 km/h (2 Bft) 100,00 %
24.04.2026 01:10 9,4 °C 8,3 °C 5,0 °C 80 % 1026,5 hPa 0,0 l/m² 0 min 0 W/m² 3,2 km/h (1 Bft) 97,87 %
24.04.2026 01:12 9,4 °C 8,3 °C 5,0 °C 80 % 1026,5 hPa 0,0 l/m² 0 min 0 W/m² 9,7 km/h (2 Bft) 100,00 %
24.04.2026 01:14 9,3 °C 8,3 °C 5,0 °C 80 % 1026,5 hPa 0,0 l/m² 0 min 0 W/m² 9,7 km/h (2 Bft) 100,00 %
24.04.2026 01:16 9,3 °C 7,8 °C 5,0 °C 81 % 1026,4 hPa 0,0 l/m² 0 min 0 W/m² 3,2 km/h (1 Bft) 100,00 %
24.04.2026 01:18 9,3 °C 7,8 °C 5,0 °C 81 % 1026,4 hPa 0,0 l/m² 0 min 0 W/m² 9,7 km/h (2 Bft) 100,00 %
24.04.2026 01:20 9,3 °C 7,8 °C 5,0 °C 81 % 1026,4 hPa 0,0 l/m² 0 min 0 W/m² 3,2 km/h (1 Bft) 97,87 %
24.04.2026 01:22 9,2 °C 7,8 °C 5,0 °C 81 % 1026,4 hPa 0,0 l/m² 0 min 0 W/m² 6,4 km/h (2 Bft) 100,00 %
24.04.2026 01:24 9,2 °C 7,8 °C 5,0 °C 81 % 1026,4 hPa 0,0 l/m² 0 min 0 W/m² 6,4 km/h (2 Bft) 100,00 %
24.04.2026 01:26 9,1 °C 7,8 °C 5,0 °C 81 % 1026,4 hPa 0,0 l/m² 0 min 0 W/m² 9,7 km/h (2 Bft) 100,00 %
24.04.2026 01:28 9,1 °C 7,8 °C 5,0 °C 81 % 1026,4 hPa 0,0 l/m² 0 min 0 W/m² 9,7 km/h (2 Bft) 98,00 %
24.04.2026 01:30 9,1 °C 7,8 °C 5,0 °C 82 % 1026,3 hPa 0,0 l/m² 0 min 0 W/m² 6,4 km/h (2 Bft) 95,74 %
24.04.2026 01:32 9,0 °C 7,8 °C 5,0 °C 82 % 1026,4 hPa 0,0 l/m² 0 min 0 W/m² 9,7 km/h (2 Bft) 86,00 %
24.04.2026 01:34 8,9 °C 7,8 °C 5,0 °C 82 % 1026,3 hPa 0,0 l/m² 0 min 0 W/m² 16,1 km/h (3 Bft) 93,48 %
24.04.2026 01:36 8,9 °C 7,8 °C 4,4 °C 82 % 1026,3 hPa 0,0 l/m² 0 min 0 W/m² 9,7 km/h (2 Bft) 94,44 %
24.04.2026 01:38 8,9 °C 7,8 °C 4,4 °C 82 % 1026,3 hPa 0,0 l/m² 0 min 0 W/m² 3,2 km/h (1 Bft) 91,80 %
24.04.2026 01:40 8,8 °C 7,8 °C 4,4 °C 83 % 1026,3 hPa 0,0 l/m² 0 min 0 W/m² 3,2 km/h (1 Bft) 94,29 %
24.04.2026 01:42 8,8 °C 7,8 °C 4,4 °C 83 % 1026,3 hPa 0,0 l/m² 0 min 0 W/m² 6,4 km/h (2 Bft) 91,49 %
24.04.2026 01:44 8,8 °C 7,8 °C 4,4 °C 83 % 1026,2 hPa 0,0 l/m² 0 min 0 W/m² 9,7 km/h (2 Bft) 94,00 %
24.04.2026 01:46 8,8 °C 7,8 °C 4,4 °C 83 % 1026,1 hPa 0,0 l/m² 0 min 0 W/m² 3,2 km/h (1 Bft) 93,62 %
24.04.2026 01:48 8,8 °C 7,8 °C 4,4 °C 83 % 1026,1 hPa 0,0 l/m² 0 min 0 W/m² 3,2 km/h (1 Bft) 57,41 %
24.04.2026 01:50 8,7 °C 7,2 °C 4,4 °C 84 % 1026,2 hPa 0,0 l/m² 0 min 0 W/m² 12,9 km/h (3 Bft) 94,29 %
24.04.2026 01:52 8,7 °C 7,2 °C 4,4 °C 84 % 1026,2 hPa 0,0 l/m² 0 min 0 W/m² 12,9 km/h (3 Bft) 92,00 %
24.04.2026 01:54 8,7 °C 7,2 °C 4,4 °C 84 % 1026,2 hPa 0,0 l/m² 0 min 0 W/m² 3,2 km/h (1 Bft) 93,88 %
24.04.2026 01:56 8,6 °C 7,2 °C 4,4 °C 84 % 1026,3 hPa 0,0 l/m² 0 min 0 W/m² 0,0 km/h (0 Bft) 93,62 %
24.04.2026 01:58 8,6 °C 7,2 °C 4,4 °C 84 % 1026,3 hPa 0,0 l/m² 0 min 0 W/m² 9,7 km/h (2 Bft) 94,00 %
24.04.2026 02:00 8,6 °C 7,2 °C 4,4 °C 84 % 1026,3 hPa 0,0 l/m² 0 min 0 W/m² 9,7 km/h (2 Bft) 95,74 %
24.04.2026 02:02 8,5 °C 7,2 °C 4,4 °C 84 % 1026,3 hPa 0,0 l/m² 0 min 0 W/m² 6,4 km/h (2 Bft) 91,49 %
24.04.2026 02:04 8,5 °C 7,2 °C 4,4 °C 85 % 1026,2 hPa 0,0 l/m² 0 min 0 W/m² 0,0 km/h (0 Bft) 95,74 %
24.04.2026 02:06 8,4 °C 7,2 °C 4,4 °C 85 % 1026,2 hPa 0,0 l/m² 0 min 0 W/m² 3,2 km/h (1 Bft) 97,83 %
24.04.2026 02:08 8,4 °C 7,2 °C 4,4 °C 85 % 1026,1 hPa 0,0 l/m² 0 min 0 W/m² 9,7 km/h (2 Bft) 94,00 %
24.04.2026 02:10 8,4 °C 7,2 °C 3,9 °C 85 % 1026,1 hPa 0,0 l/m² 0 min 0 W/m² 3,2 km/h (1 Bft) 97,87 %
24.04.2026 02:12 8,3 °C 7,2 °C 3,9 °C 85 % 1026,1 hPa 0,0 l/m² 0 min 0 W/m² 6,4 km/h (2 Bft) 97,87 %
24.04.2026 02:14 8,3 °C 6,7 °C 3,9 °C 84 % 1026,1 hPa 0,0 l/m² 0 min 0 W/m² 6,4 km/h (2 Bft) 97,87 %
24.04.2026 02:16 8,3 °C 6,7 °C 3,9 °C 85 % 1026,1 hPa 0,0 l/m² 0 min 0 W/m² 3,2 km/h (1 Bft) 95,74 %
24.04.2026 02:18 8,2 °C 6,7 °C 3,9 °C 85 % 1026,0 hPa 0,0 l/m² 0 min 0 W/m² 0,0 km/h (0 Bft) 95,24 %
24.04.2026 02:20 8,2 °C 6,7 °C 3,9 °C 85 % 1026,0 hPa 0,0 l/m² 0 min 0 W/m² 3,2 km/h (1 Bft) 97,87 %
24.04.2026 02:22 8,1 °C 6,7 °C 3,9 °C 85 % 1026,1 hPa 0,0 l/m² 0 min 0 W/m² 0,0 km/h (0 Bft) 97,83 %
24.04.2026 02:24 8,1 °C 6,7 °C 3,3 °C 85 % 1026,1 hPa 0,0 l/m² 0 min 0 W/m² 6,4 km/h (2 Bft) 97,87 %
24.04.2026 02:26 8,1 °C 6,7 °C 3,3 °C 85 % 1026,0 hPa 0,0 l/m² 0 min 0 W/m² 6,4 km/h (2 Bft) 95,74 %
24.04.2026 02:28 8,0 °C 6,7 °C 3,3 °C 85 % 1026,0 hPa 0,0 l/m² 0 min 0 W/m² 3,2 km/h (1 Bft) 97,87 %
24.04.2026 02:30 7,9 °C 6,1 °C 3,3 °C 85 % 1026,0 hPa 0,0 l/m² 0 min 0 W/m² 0,0 km/h (0 Bft) 95,74 %
24.04.2026 02:32 7,9 °C 6,1 °C 3,3 °C 85 % 1026,0 hPa 0,0 l/m² 0 min 0 W/m² 6,4 km/h (2 Bft) 97,87 %
24.04.2026 02:34 7,8 °C 6,1 °C 3,3 °C 85 % 1026,0 hPa 0,0 l/m² 0 min 0 W/m² 0,0 km/h (0 Bft) 97,87 %
24.04.2026 02:36 7,8 °C 6,1 °C 3,3 °C 85 % 1025,9 hPa 0,0 l/m² 0 min 0 W/m² 3,2 km/h (1 Bft) 97,87 %
24.04.2026 02:38 7,8 °C 6,1 °C 3,3 °C 85 % 1025,9 hPa 0,0 l/m² 0 min 0 W/m² 6,4 km/h (2 Bft) 97,83 %
24.04.2026 02:40 7,7 °C 6,1 °C 3,3 °C 85 % 1025,9 hPa 0,0 l/m² 0 min 0 W/m² 3,2 km/h (1 Bft) 100,00 %
24.04.2026 02:42 7,7 °C 6,1 °C 3,3 °C 85 % 1025,9 hPa 0,0 l/m² 0 min 0 W/m² 0,0 km/h (0 Bft) 97,87 %
24.04.2026 02:44 7,6 °C 6,1 °C 3,3 °C 85 % 1025,9 hPa 0,0 l/m² 0 min 0 W/m² 0,0 km/h (0 Bft) 100,00 %
24.04.2026 02:46 7,5 °C 6,1 °C 3,3 °C 86 % 1025,9 hPa 0,0 l/m² 0 min 0 W/m² 3,2 km/h (1 Bft) 97,87 %
24.04.2026 02:48 7,5 °C 6,1 °C 3,3 °C 86 % 1025,9 hPa 0,0 l/m² 0 min 0 W/m² 0,0 km/h (0 Bft) 97,87 %
24.04.2026 02:50 7,4 °C 6,1 °C 3,3 °C 86 % 1025,9 hPa 0,0 l/m² 0 min 0 W/m² 6,4 km/h (2 Bft) 97,87 %
24.04.2026 02:52 7,4 °C 6,1 °C 3,3 °C 86 % 1026,0 hPa 0,0 l/m² 0 min 0 W/m² 3,2 km/h (1 Bft) 97,14 %
24.04.2026 02:54 7,3 °C 6,1 °C 3,3 °C 86 % 1026,0 hPa 0,0 l/m² 0 min 0 W/m² 0,0 km/h (0 Bft) 100,00 %
24.04.2026 02:59 7,3 °C 6,1 °C 3,3 °C 87 % 1026,0 hPa 0,0 l/m² 0 min 0 W/m² 6,4 km/h (2 Bft) 95,59 %
24.04.2026 03:00 7,2 °C 6,1 °C 3,3 °C 87 % 1026,0 hPa 0,0 l/m² 0 min 0 W/m² 6,4 km/h (2 Bft) 95,65 %
24.04.2026 03:02 7,2 °C 6,1 °C 2,8 °C 87 % 1026,0 hPa 0,0 l/m² 0 min 0 W/m² 3,2 km/h (1 Bft) 97,87 %
24.04.2026 03:04 7,2 °C 5,6 °C 2,8 °C 87 % 1025,9 hPa 0,0 l/m² 0 min 0 W/m² 6,4 km/h (2 Bft) 95,74 %
24.04.2026 03:06 7,2 °C 5,6 °C 2,8 °C 87 % 1025,9 hPa 0,0 l/m² 0 min 0 W/m² 9,7 km/h (2 Bft) 95,74 %
24.04.2026 03:08 7,1 °C 5,6 °C 2,8 °C 87 % 1025,9 hPa 0,0 l/m² 0 min 0 W/m² 3,2 km/h (1 Bft) 97,87 %
24.04.2026 03:10 7,1 °C 5,6 °C 2,8 °C 87 % 1025,9 hPa 0,0 l/m² 0 min 0 W/m² 6,4 km/h (2 Bft) 97,96 %
24.04.2026 03:12 7,1 °C 5,6 °C 2,8 °C 87 % 1025,9 hPa 0,0 l/m² 0 min 0 W/m² 3,2 km/h (1 Bft) 95,74 %
24.04.2026 03:14 7,1 °C 5,6 °C 2,8 °C 87 % 1025,9 hPa 0,0 l/m² 0 min 0 W/m² 3,2 km/h (1 Bft) 98,00 %
24.04.2026 03:16 7,0 °C 5,6 °C 2,8 °C 88 % 1025,9 hPa 0,0 l/m² 0 min 0 W/m² 3,2 km/h (1 Bft) 95,74 %
24.04.2026 03:18 7,0 °C 5,6 °C 2,8 °C 87 % 1025,9 hPa 0,0 l/m² 0 min 0 W/m² 3,2 km/h (1 Bft) 95,74 %
24.04.2026 03:20 6,9 °C 5,6 °C 2,8 °C 88 % 1025,8 hPa 0,0 l/m² 0 min 0 W/m² 6,4 km/h (2 Bft) 97,87 %
24.04.2026 03:22 6,9 °C 5,6 °C 2,8 °C 88 % 1025,8 hPa 0,0 l/m² 0 min 0 W/m² 3,2 km/h (1 Bft) 97,37 %
24.04.2026 03:24 6,9 °C 5,6 °C 2,8 °C 88 % 1025,8 hPa 0,0 l/m² 0 min 0 W/m² 0,0 km/h (0 Bft) 95,74 %
24.04.2026 03:26 6,9 °C 5,6 °C 2,8 °C 88 % 1025,8 hPa 0,0 l/m² 0 min 0 W/m² 3,2 km/h (1 Bft) 97,87 %
24.04.2026 03:28 6,8 °C 5,6 °C 2,8 °C 88 % 1025,8 hPa 0,0 l/m² 0 min 0 W/m² 0,0 km/h (0 Bft) 97,87 %
24.04.2026 03:30 6,8 °C 5,6 °C 2,2 °C 88 % 1025,8 hPa 0,0 l/m² 0 min 0 W/m² 3,2 km/h (1 Bft) 100,00 %
24.04.2026 03:32 6,8 °C 5,6 °C 2,8 °C 88 % 1025,8 hPa 0,0 l/m² 0 min 0 W/m² 3,2 km/h (1 Bft) 100,00 %
24.04.2026 03:34 6,8 °C 5,6 °C 2,8 °C 88 % 1025,8 hPa 0,0 l/m² 0 min 0 W/m² 0,0 km/h (0 Bft) 95,74 %
24.04.2026 03:36 6,7 °C 5,6 °C 2,8 °C 88 % 1025,8 hPa 0,0 l/m² 0 min 0 W/m² 0,0 km/h (0 Bft) 97,87 %
24.04.2026 03:38 6,7 °C 5,0 °C 2,2 °C 88 % 1025,8 hPa 0,0 l/m² 0 min 0 W/m² 0,0 km/h (0 Bft) 98,00 %
24.04.2026 03:40 6,6 °C 5,0 °C 2,8 °C 88 % 1025,8 hPa 0,0 l/m² 0 min 0 W/m² 0,0 km/h (0 Bft) 93,10 %
24.04.2026 03:42 6,6 °C 5,0 °C 2,2 °C 88 % 1025,8 hPa 0,0 l/m² 0 min 0 W/m² 0,0 km/h (0 Bft) 98,44 %
24.04.2026 03:44 6,5 °C 5,0 °C 2,2 °C 89 % 1025,7 hPa 0,0 l/m² 0 min 0 W/m² 0,0 km/h (0 Bft) 97,87 %
24.04.2026 03:46 6,5 °C 5,0 °C 2,2 °C 88 % 1025,8 hPa 0,0 l/m² 0 min 0 W/m² 3,2 km/h (1 Bft) 95,74 %
24.04.2026 03:48 6,4 °C 5,0 °C 1,7 °C 88 % 1025,7 hPa 0,0 l/m² 0 min 0 W/m² 3,2 km/h (1 Bft) 97,62 %
24.04.2026 03:50 6,4 °C 5,0 °C 1,7 °C 88 % 1025,7 hPa 0,0 l/m² 0 min 0 W/m² 3,2 km/h (1 Bft) 95,74 %
24.04.2026 03:52 6,4 °C 5,0 °C 1,7 °C 89 % 1025,8 hPa 0,0 l/m² 0 min 0 W/m² 0,0 km/h (0 Bft) 98,00 %
24.04.2026 03:54 6,3 °C 5,0 °C 1,7 °C 89 % 1025,8 hPa 0,0 l/m² 0 min 0 W/m² 3,2 km/h (1 Bft) 97,87 %
24.04.2026 03:56 6,3 °C 5,0 °C 2,2 °C 89 % 1025,7 hPa 0,0 l/m² 0 min 0 W/m² 0,0 km/h (0 Bft) 95,92 %
24.04.2026 03:58 6,3 °C 5,0 °C 2,2 °C 89 % 1025,8 hPa 0,0 l/m² 0 min 0 W/m² 0,0 km/h (0 Bft) 97,87 %
24.04.2026 04:00 6,2 °C 4,4 °C 2,2 °C 89 % 1025,7 hPa 0,0 l/m² 0 min 0 W/m² 0,0 km/h (0 Bft) 97,87 %
24.04.2026 04:02 6,2 °C 4,4 °C 2,2 °C 89 % 1025,7 hPa 0,0 l/m² 0 min 0 W/m² 0,0 km/h (0 Bft) 53,33 %
24.04.2026 04:04 6,1 °C 4,4 °C 2,2 °C 89 % 1025,7 hPa 0,0 l/m² 0 min 0 W/m² 0,0 km/h (0 Bft) 97,37 %
24.04.2026 04:06 6,1 °C 4,4 °C 1,7 °C 89 % 1025,7 hPa 0,0 l/m² 0 min 0 W/m² 0,0 km/h (0 Bft) 98,00 %
24.04.2026 04:08 6,0 °C 4,4 °C 1,7 °C 89 % 1025,6 hPa 0,0 l/m² 0 min 0 W/m² 0,0 km/h (0 Bft) 100,00 %
24.04.2026 04:10 6,0 °C 4,4 °C 1,7 °C 89 % 1025,6 hPa 0,0 l/m² 0 min 0 W/m² 0,0 km/h (0 Bft) 100,00 %
24.04.2026 04:12 5,9 °C 4,4 °C 1,7 °C 89 % 1025,6 hPa 0,0 l/m² 0 min 0 W/m² 0,0 km/h (0 Bft) 100,00 %
24.04.2026 04:14 5,9 °C 4,4 °C 1,7 °C 89 % 1025,5 hPa 0,0 l/m² 0 min 0 W/m² 0,0 km/h (0 Bft) 100,00 %
24.04.2026 04:16 5,9 °C 4,4 °C 1,7 °C 89 % 1025,5 hPa 0,0 l/m² 0 min 0 W/m² 0,0 km/h (0 Bft) 100,00 %
24.04.2026 04:18 5,8 °C 4,4 °C 1,7 °C 89 % 1025,5 hPa 0,0 l/m² 0 min 0 W/m² 0,0 km/h (0 Bft) 100,00 %
24.04.2026 04:20 5,8 °C 4,4 °C 1,7 °C 89 % 1025,5 hPa 0,0 l/m² 0 min 0 W/m² 0,0 km/h (0 Bft) 97,87 %
24.04.2026 04:22 5,8 °C 4,4 °C 1,7 °C 90 % 1025,5 hPa 0,0 l/m² 0 min 0 W/m² 0,0 km/h (0 Bft) 100,00 %
24.04.2026 04:24 5,8 °C 4,4 °C 1,7 °C 90 % 1025,5 hPa 0,0 l/m² 0 min 0 W/m² 0,0 km/h (0 Bft) 97,14 %
24.04.2026 04:26 5,7 °C 3,9 °C 1,7 °C 90 % 1025,5 hPa 0,0 l/m² 0 min 0 W/m² 0,0 km/h (0 Bft) 98,00 %
24.04.2026 04:28 5,7 °C 3,9 °C 1,7 °C 90 % 1025,5 hPa 0,0 l/m² 0 min 0 W/m² 0,0 km/h (0 Bft) 100,00 %
24.04.2026 04:30 5,7 °C 4,4 °C 1,7 °C 90 % 1025,5 hPa 0,0 l/m² 0 min 0 W/m² 0,0 km/h (0 Bft) 100,00 %
24.04.2026 04:32 5,7 °C 4,4 °C 1,7 °C 90 % 1025,5 hPa 0,0 l/m² 0 min 0 W/m² 0,0 km/h (0 Bft) 97,83 %
24.04.2026 04:34 5,7 °C 4,4 °C 1,7 °C 90 % 1025,4 hPa 0,0 l/m² 0 min 0 W/m² 0,0 km/h (0 Bft) 93,62 %
24.04.2026 04:36 5,6 °C 4,4 °C 1,7 °C 90 % 1025,4 hPa 0,0 l/m² 0 min 0 W/m² 0,0 km/h (0 Bft) 97,87 %
24.04.2026 04:38 5,6 °C 4,4 °C 1,7 °C 90 % 1025,4 hPa 0,0 l/m² 0 min 0 W/m² 0,0 km/h (0 Bft) 97,87 %
24.04.2026 04:40 5,6 °C 3,9 °C 1,7 °C 90 % 1025,4 hPa 0,0 l/m² 0 min 0 W/m² 3,2 km/h (1 Bft) 97,87 %
24.04.2026 04:42 5,6 °C 4,4 °C 1,7 °C 90 % 1025,4 hPa 0,0 l/m² 0 min 0 W/m² 0,0 km/h (0 Bft) 98,00 %
24.04.2026 04:44 5,5 °C 3,9 °C 1,7 °C 90 % 1025,4 hPa 0,0 l/m² 0 min 0 W/m² 0,0 km/h (0 Bft) 95,74 %
24.04.2026 04:46 5,5 °C 3,9 °C 1,7 °C 90 % 1025,4 hPa 0,0 l/m² 0 min 0 W/m² 0,0 km/h (0 Bft) 98,00 %
24.04.2026 04:48 5,4 °C 3,9 °C 1,7 °C 90 % 1025,4 hPa 0,0 l/m² 0 min 0 W/m² 0,0 km/h (0 Bft) 95,74 %
24.04.2026 04:50 5,4 °C 3,9 °C 1,1 °C 90 % 1025,4 hPa 0,0 l/m² 0 min 0 W/m² 0,0 km/h (0 Bft) 97,83 %
24.04.2026 04:52 5,4 °C 3,9 °C 1,1 °C 90 % 1025,4 hPa 0,0 l/m² 0 min 0 W/m² 3,2 km/h (1 Bft) 95,83 %
24.04.2026 04:54 5,4 °C 3,9 °C 1,1 °C 90 % 1025,3 hPa 0,0 l/m² 0 min 0 W/m² 3,2 km/h (1 Bft) 98,44 %
24.04.2026 04:56 5,3 °C 3,9 °C 1,1 °C 90 % 1025,3 hPa 0,0 l/m² 0 min 0 W/m² 3,2 km/h (1 Bft) 95,74 %
24.04.2026 04:58 5,3 °C 3,9 °C 1,1 °C 91 % 1025,3 hPa 0,0 l/m² 0 min 0 W/m² 0,0 km/h (0 Bft) 100,00 %
24.04.2026 05:00 5,3 °C 3,9 °C 1,1 °C 91 % 1025,3 hPa 0,0 l/m² 0 min 0 W/m² 3,2 km/h (1 Bft) 100,00 %
24.04.2026 05:02 5,3 °C 3,9 °C 1,1 °C 91 % 1025,3 hPa 0,0 l/m² 0 min 0 W/m² 3,2 km/h (1 Bft) 98,00 %
24.04.2026 05:04 5,2 °C 4,4 °C 1,1 °C 91 % 1025,3 hPa 0,0 l/m² 0 min 0 W/m² 0,0 km/h (0 Bft) 100,00 %
24.04.2026 05:06 5,2 °C 4,4 °C 1,7 °C 91 % 1025,4 hPa 0,0 l/m² 0 min 0 W/m² 6,4 km/h (2 Bft) 97,83 %
24.04.2026 05:08 5,2 °C 4,4 °C 1,7 °C 91 % 1025,4 hPa 0,0 l/m² 0 min 0 W/m² 9,7 km/h (2 Bft) 100,00 %
24.04.2026 05:10 5,3 °C 4,4 °C 1,7 °C 91 % 1025,4 hPa 0,0 l/m² 0 min 0 W/m² 9,7 km/h (2 Bft) 100,00 %
24.04.2026 05:12 5,3 °C 5,0 °C 1,7 °C 91 % 1025,5 hPa 0,0 l/m² 0 min 0 W/m² 3,2 km/h (1 Bft) 100,00 %
24.04.2026 05:14 5,4 °C 5,0 °C 1,7 °C 92 % 1025,5 hPa 0,0 l/m² 0 min 0 W/m² 3,2 km/h (1 Bft) 100,00 %
24.04.2026 05:16 5,4 °C 5,0 °C 1,7 °C 92 % 1025,5 hPa 0,0 l/m² 0 min 0 W/m² 12,9 km/h (3 Bft) 100,00 %
24.04.2026 05:18 5,5 °C 5,0 °C 2,2 °C 92 % 1025,5 hPa 0,0 l/m² 0 min 0 W/m² 16,1 km/h (3 Bft) 98,00 %
24.04.2026 05:20 5,5 °C 5,0 °C 1,7 °C 92 % 1025,5 hPa 0,0 l/m² 0 min 0 W/m² 16,1 km/h (3 Bft) 100,00 %
24.04.2026 05:22 5,5 °C 5,0 °C 1,7 °C 92 % 1025,4 hPa 0,0 l/m² 0 min 0 W/m² 9,7 km/h (2 Bft) 100,00 %
24.04.2026 05:24 5,4 °C 5,0 °C 1,7 °C 92 % 1025,4 hPa 0,0 l/m² 0 min 0 W/m² 9,7 km/h (2 Bft) 100,00 %
24.04.2026 05:26 5,4 °C 5,0 °C 1,7 °C 92 % 1025,3 hPa 0,0 l/m² 0 min 0 W/m² 9,7 km/h (2 Bft) 100,00 %
24.04.2026 05:28 5,5 °C 5,0 °C 1,7 °C 93 % 1025,3 hPa 0,0 l/m² 0 min 0 W/m² 9,7 km/h (2 Bft) 97,87 %
24.04.2026 05:30 5,5 °C 5,0 °C 1,7 °C 93 % 1025,3 hPa 0,0 l/m² 0 min 0 W/m² 16,1 km/h (3 Bft) 95,74 %
24.04.2026 05:32 5,5 °C 5,0 °C 1,7 °C 93 % 1025,3 hPa 0,0 l/m² 0 min 0 W/m² 16,1 km/h (3 Bft) 97,87 %
24.04.2026 05:34 5,4 °C 5,0 °C 1,7 °C 93 % 1025,3 hPa 0,0 l/m² 0 min 0 W/m² 9,7 km/h (2 Bft) 98,00 %
24.04.2026 05:36 5,4 °C 5,0 °C 1,7 °C 93 % 1025,4 hPa 0,0 l/m² 0 min 0 W/m² 12,9 km/h (3 Bft) 97,14 %
24.04.2026 05:38 5,4 °C 5,0 °C 1,7 °C 93 % 1025,4 hPa 0,0 l/m² 0 min 0 W/m² 9,7 km/h (2 Bft) 98,11 %
24.04.2026 05:40 5,3 °C 5,0 °C 1,7 °C 93 % 1025,4 hPa 0,0 l/m² 0 min 0 W/m² 9,7 km/h (2 Bft) 95,92 %
24.04.2026 05:42 5,3 °C 5,0 °C 1,7 °C 93 % 1025,4 hPa 0,0 l/m² 0 min 0 W/m² 3,2 km/h (1 Bft) 97,44 %
24.04.2026 05:44 5,3 °C 5,0 °C 1,7 °C 93 % 1025,4 hPa 0,0 l/m² 0 min 0 W/m² 9,7 km/h (2 Bft) 97,96 %
24.04.2026 05:46 5,3 °C 5,0 °C 1,7 °C 93 % 1025,4 hPa 0,0 l/m² 0 min 0 W/m² 6,4 km/h (2 Bft) 95,74 %
24.04.2026 05:48 5,3 °C 5,0 °C 1,7 °C 93 % 1025,4 hPa 0,0 l/m² 0 min 0 W/m² 6,4 km/h (2 Bft) 96,23 %
24.04.2026 05:50 5,3 °C 5,0 °C 1,7 °C 93 % 1025,4 hPa 0,0 l/m² 0 min 0 W/m² 6,4 km/h (2 Bft) 94,74 %
24.04.2026 05:52 5,2 °C 5,0 °C 1,7 °C 93 % 1025,4 hPa 0,0 l/m² 0 min 0 W/m² 6,4 km/h (2 Bft) 96,23 %
24.04.2026 05:54 5,2 °C 4,4 °C 1,7 °C 93 % 1025,4 hPa 0,0 l/m² 0 min 0 W/m² 12,9 km/h (3 Bft) 93,18 %
24.04.2026 05:56 5,2 °C 4,4 °C 1,7 °C 93 % 1025,4 hPa 0,0 l/m² 0 min 0 W/m² 6,4 km/h (2 Bft) 95,74 %
24.04.2026 05:58 5,2 °C 5,0 °C 1,7 °C 93 % 1025,3 hPa 0,0 l/m² 0 min 0 W/m² 9,7 km/h (2 Bft) 93,48 %
24.04.2026 06:00 5,2 °C 5,0 °C 1,7 °C 93 % 1025,3 hPa 0,0 l/m² 0 min 0 W/m² 6,4 km/h (2 Bft) 91,49 %
24.04.2026 06:02 5,1 °C 4,4 °C 1,7 °C 93 % 1025,3 hPa 0,0 l/m² 0 min 0 W/m² 12,9 km/h (3 Bft) 91,49 %
24.04.2026 06:04 5,1 °C 5,0 °C 1,7 °C 93 % 1025,4 hPa 0,0 l/m² 0 min 0 W/m² 9,7 km/h (2 Bft) 94,00 %
24.04.2026 06:06 5,1 °C 4,4 °C 1,7 °C 93 % 1025,3 hPa 0,0 l/m² 0 min 0 W/m² 16,1 km/h (3 Bft) 95,74 %
24.04.2026 06:08 5,1 °C 4,4 °C 1,7 °C 93 % 1025,3 hPa 0,0 l/m² 0 min 0 W/m² 12,9 km/h (3 Bft) 95,74 %
24.04.2026 06:10 5,0 °C 4,4 °C 1,7 °C 93 % 1025,3 hPa 0,0 l/m² 0 min 0 W/m² 12,9 km/h (3 Bft) 95,12 %
24.04.2026 06:12 5,0 °C 4,4 °C 1,7 °C 93 % 1025,4 hPa 0,0 l/m² 0 min 0 W/m² 9,7 km/h (2 Bft) 91,49 %
24.04.2026 06:14 5,0 °C 4,4 °C 1,7 °C 94 % 1025,4 hPa 0,0 l/m² 0 min 0 W/m² 6,4 km/h (2 Bft) 95,74 %
24.04.2026 06:16 4,9 °C 4,4 °C 1,7 °C 94 % 1025,3 hPa 0,0 l/m² 0 min 0 W/m² 9,7 km/h (2 Bft) 97,83 %
24.04.2026 06:18 4,9 °C 4,4 °C 1,7 °C 94 % 1025,3 hPa 0,0 l/m² 0 min 0 W/m² 12,9 km/h (3 Bft) 96,00 %
24.04.2026 06:20 4,9 °C 4,4 °C 1,7 °C 94 % 1025,4 hPa 0,0 l/m² 0 min 0 W/m² 9,7 km/h (2 Bft) 97,87 %
24.04.2026 06:22 4,9 °C 4,4 °C 1,7 °C 94 % 1025,4 hPa 0,0 l/m² 0 min 0 W/m² 9,7 km/h (2 Bft) 96,30 %
24.04.2026 06:24 4,9 °C 4,4 °C 1,7 °C 94 % 1025,4 hPa 0,0 l/m² 0 min 0 W/m² 12,9 km/h (3 Bft) 92,11 %
24.04.2026 06:26 4,9 °C 4,4 °C 1,7 °C 94 % 1025,4 hPa 0,0 l/m² 0 min 0 W/m² 16,1 km/h (3 Bft) 94,00 %
24.04.2026 06:28 4,9 °C 4,4 °C 1,7 °C 94 % 1025,4 hPa 0,0 l/m² 0 min 0 W/m² 6,4 km/h (2 Bft) 92,00 %
24.04.2026 06:30 4,9 °C 4,4 °C 1,7 °C 94 % 1025,4 hPa 0,0 l/m² 0 min 0 W/m² 12,9 km/h (3 Bft) 97,96 %
24.04.2026 06:32 4,9 °C 4,4 °C 1,7 °C 94 % 1025,4 hPa 0,0 l/m² 0 min 0 W/m² 6,4 km/h (2 Bft) 97,87 %
24.04.2026 06:34 4,9 °C 5,0 °C 1,7 °C 94 % 1025,4 hPa 0,0 l/m² 0 min 0 W/m² 12,9 km/h (3 Bft) 97,87 %
24.04.2026 06:36 4,9 °C 5,0 °C 1,7 °C 94 % 1025,4 hPa 0,0 l/m² 0 min 0 W/m² 9,7 km/h (2 Bft) 97,56 %
24.04.2026 06:38 4,9 °C 5,0 °C 1,7 °C 94 % 1025,4 hPa 0,0 l/m² 0 min 0 W/m² 16,1 km/h (3 Bft) 97,87 %
24.04.2026 06:40 4,9 °C 5,0 °C 1,7 °C 94 % 1025,5 hPa 0,0 l/m² 0 min 0 W/m² 9,7 km/h (2 Bft) 98,11 %
24.04.2026 06:42 4,9 °C 5,0 °C 1,7 °C 94 % 1025,5 hPa 0,0 l/m² 0 min 5 W/m² 6,4 km/h (2 Bft) 94,29 %
24.04.2026 06:44 4,9 °C 5,0 °C 1,7 °C 94 % 1025,5 hPa 0,0 l/m² 0 min 7 W/m² 9,7 km/h (2 Bft) 98,11 %
24.04.2026 06:46 4,9 °C 5,0 °C 1,7 °C 94 % 1025,4 hPa 0,0 l/m² 0 min 7 W/m² 9,7 km/h (2 Bft) 95,45 %
24.04.2026 06:48 4,9 °C 5,0 °C 1,7 °C 94 % 1025,5 hPa 0,0 l/m² 0 min 7 W/m² 22,5 km/h (4 Bft) 97,87 %
24.04.2026 06:50 4,9 °C 5,0 °C 1,7 °C 94 % 1025,5 hPa 0,0 l/m² 0 min 7 W/m² 12,9 km/h (3 Bft) 100,00 %
24.04.2026 06:52 4,9 °C 5,0 °C 1,7 °C 94 % 1025,4 hPa 0,0 l/m² 0 min 7 W/m² 6,4 km/h (2 Bft) 97,87 %
24.04.2026 06:54 4,9 °C 5,0 °C 1,7 °C 94 % 1025,4 hPa 0,0 l/m² 0 min 9 W/m² 12,9 km/h (3 Bft) 100,00 %
24.04.2026 06:56 4,9 °C 5,0 °C 1,7 °C 94 % 1025,5 hPa 0,0 l/m² 0 min 11 W/m² 16,1 km/h (3 Bft) 100,00 %
24.04.2026 06:58 4,9 °C 5,0 °C 1,7 °C 94 % 1025,4 hPa 0,0 l/m² 0 min 11 W/m² 12,9 km/h (3 Bft) 97,37 %
24.04.2026 07:00 4,9 °C 5,0 °C 1,7 °C 94 % 1025,5 hPa 0,0 l/m² 0 min 12 W/m² 16,1 km/h (3 Bft) 100,00 %
24.04.2026 07:02 4,9 °C 5,0 °C 1,7 °C 94 % 1025,5 hPa 0,0 l/m² 0 min 14 W/m² 9,7 km/h (2 Bft) 100,00 %
24.04.2026 07:04 5,0 °C 5,0 °C 1,7 °C 94 % 1025,5 hPa 0,0 l/m² 0 min 12 W/m² 9,7 km/h (2 Bft) 97,87 %
24.04.2026 07:06 5,0 °C 5,0 °C 1,7 °C 94 % 1025,5 hPa 0,0 l/m² 0 min 14 W/m² 12,9 km/h (3 Bft) 98,28 %
24.04.2026 07:08 5,1 °C 5,0 °C 1,7 °C 94 % 1025,5 hPa 0,0 l/m² 0 min 16 W/m² 9,7 km/h (2 Bft) 100,00 %
24.04.2026 07:10 5,1 °C 5,0 °C 2,2 °C 94 % 1025,5 hPa 0,0 l/m² 0 min 18 W/m² 0,0 km/h (0 Bft) 95,74 %
24.04.2026 07:12 5,1 °C 5,0 °C 2,2 °C 94 % 1025,5 hPa 0,0 l/m² 0 min 17 W/m² 3,2 km/h (1 Bft) 100,00 %
24.04.2026 07:14 5,1 °C 5,0 °C 2,2 °C 94 % 1025,5 hPa 0,0 l/m² 0 min 16 W/m² 3,2 km/h (1 Bft) 100,00 %
24.04.2026 07:16 5,2 °C 5,0 °C 2,2 °C 94 % 1025,5 hPa 0,0 l/m² 0 min 14 W/m² 6,4 km/h (2 Bft) 98,11 %
24.04.2026 07:18 5,2 °C 5,0 °C 2,2 °C 94 % 1025,6 hPa 0,0 l/m² 0 min 16 W/m² 9,7 km/h (2 Bft) 100,00 %
24.04.2026 07:20 5,2 °C 5,0 °C 2,2 °C 94 % 1025,6 hPa 0,0 l/m² 0 min 21 W/m² 3,2 km/h (1 Bft) 100,00 %
24.04.2026 07:22 5,2 °C 5,0 °C 2,2 °C 94 % 1025,6 hPa 0,0 l/m² 0 min 22 W/m² 6,4 km/h (2 Bft) 100,00 %
24.04.2026 07:24 5,2 °C 5,0 °C 2,2 °C 94 % 1025,6 hPa 0,0 l/m² 0 min 22 W/m² 6,4 km/h (2 Bft) 100,00 %
24.04.2026 07:26 5,2 °C 5,0 °C 2,2 °C 94 % 1025,6 hPa 0,0 l/m² 0 min 23 W/m² 9,7 km/h (2 Bft) 98,00 %
24.04.2026 07:28 5,3 °C 5,6 °C 2,2 °C 94 % 1025,6 hPa 0,0 l/m² 0 min 23 W/m² 6,4 km/h (2 Bft) 100,00 %
24.04.2026 07:30 5,3 °C 5,6 °C 2,2 °C 94 % 1025,6 hPa 0,0 l/m² 0 min 26 W/m² 6,4 km/h (2 Bft) 93,62 %
24.04.2026 07:32 5,3 °C 5,0 °C 2,2 °C 94 % 1025,6 hPa 0,0 l/m² 0 min 29 W/m² 12,9 km/h (3 Bft) 96,00 %
24.04.2026 07:34 5,3 °C 5,0 °C 2,2 °C 93 % 1025,6 hPa 0,0 l/m² 0 min 27 W/m² 12,9 km/h (3 Bft) 100,00 %
24.04.2026 07:36 5,3 °C 5,0 °C 2,2 °C 93 % 1025,6 hPa 0,0 l/m² 0 min 35 W/m² 12,9 km/h (3 Bft) 95,74 %
24.04.2026 07:38 5,3 °C 5,0 °C 2,2 °C 93 % 1025,6 hPa 0,0 l/m² 0 min 34 W/m² 12,9 km/h (3 Bft) 97,87 %
24.04.2026 07:40 5,3 °C 5,0 °C 2,2 °C 93 % 1025,5 hPa 0,0 l/m² 0 min 29 W/m² 12,9 km/h (3 Bft) 97,83 %
24.04.2026 07:42 5,3 °C 5,0 °C 2,2 °C 93 % 1025,6 hPa 0,0 l/m² 0 min 33 W/m² 9,7 km/h (2 Bft) 94,00 %
24.04.2026 07:44 5,3 °C 5,0 °C 2,2 °C 93 % 1025,5 hPa 0,0 l/m² 0 min 39 W/m² 9,7 km/h (2 Bft) 93,62 %
24.04.2026 07:46 5,3 °C 5,0 °C 2,2 °C 93 % 1025,5 hPa 0,0 l/m² 0 min 40 W/m² 12,9 km/h (3 Bft) 92,11 %
24.04.2026 07:48 5,3 °C 5,0 °C 2,2 °C 93 % 1025,5 hPa 0,0 l/m² 0 min 34 W/m² 6,4 km/h (2 Bft) 95,74 %
24.04.2026 07:50 5,3 °C 5,6 °C 2,2 °C 93 % 1025,5 hPa 0,0 l/m² 0 min 38 W/m² 19,3 km/h (3 Bft) 93,62 %
24.04.2026 07:52 5,3 °C 5,6 °C 2,2 °C 93 % 1025,6 hPa 0,0 l/m² 0 min 48 W/m² 12,9 km/h (3 Bft) 94,00 %
24.04.2026 07:54 5,3 °C 5,0 °C 2,2 °C 93 % 1025,6 hPa 0,0 l/m² 0 min 47 W/m² 16,1 km/h (3 Bft) 95,74 %
24.04.2026 07:56 5,3 °C 5,6 °C 2,2 °C 93 % 1025,6 hPa 0,0 l/m² 0 min 54 W/m² 9,7 km/h (2 Bft) 96,00 %
24.04.2026 07:58 5,3 °C 5,6 °C 2,2 °C 93 % 1025,6 hPa 0,0 l/m² 0 min 60 W/m² 16,1 km/h (3 Bft) 95,65 %
24.04.2026 08:00 5,3 °C 5,6 °C 2,2 °C 93 % 1025,6 hPa 0,0 l/m² 0 min 66 W/m² 3,2 km/h (1 Bft) 95,74 %
24.04.2026 08:02 5,3 °C 5,6 °C 2,2 °C 93 % 1025,5 hPa 0,0 l/m² 0 min 73 W/m² 6,4 km/h (2 Bft) 96,00 %
24.04.2026 08:04 5,4 °C 5,6 °C 2,8 °C 93 % 1025,6 hPa 0,0 l/m² 0 min 64 W/m² 3,2 km/h (1 Bft) 95,74 %
24.04.2026 08:06 5,4 °C 5,6 °C 2,2 °C 93 % 1025,6 hPa 0,0 l/m² 0 min 70 W/m² 3,2 km/h (1 Bft) 95,74 %
24.04.2026 08:08 5,4 °C 5,6 °C 2,8 °C 93 % 1025,5 hPa 0,0 l/m² 0 min 74 W/m² 6,4 km/h (2 Bft) 97,87 %
24.04.2026 08:10 5,5 °C 6,1 °C 2,8 °C 92 % 1025,5 hPa 0,0 l/m² 0 min 76 W/m² 6,4 km/h (2 Bft) 97,87 %
24.04.2026 08:12 5,6 °C 5,6 °C 2,8 °C 92 % 1025,4 hPa 0,0 l/m² 0 min 65 W/m² 9,7 km/h (2 Bft) 97,37 %
24.04.2026 08:14 5,6 °C 5,6 °C 2,8 °C 92 % 1025,5 hPa 0,0 l/m² 0 min 58 W/m² 12,9 km/h (3 Bft) 97,87 %
24.04.2026 08:16 5,6 °C 5,6 °C 2,8 °C 92 % 1025,5 hPa 0,0 l/m² 0 min 72 W/m² 0,0 km/h (0 Bft) 97,87 %
24.04.2026 08:18 5,6 °C 5,6 °C 2,8 °C 92 % 1025,4 hPa 0,0 l/m² 0 min 70 W/m² 6,4 km/h (2 Bft) 97,83 %
24.04.2026 08:20 5,6 °C 5,6 °C 2,8 °C 92 % 1025,4 hPa 0,0 l/m² 0 min 80 W/m² 12,9 km/h (3 Bft) 96,00 %
24.04.2026 08:22 5,6 °C 6,1 °C 2,8 °C 92 % 1025,5 hPa 0,0 l/m² 0 min 94 W/m² 9,7 km/h (2 Bft) 98,00 %
24.04.2026 08:24 5,6 °C 6,1 °C 2,8 °C 92 % 1025,6 hPa 0,0 l/m² 0 min 99 W/m² 9,7 km/h (2 Bft) 100,00 %
24.04.2026 08:26 5,6 °C 6,1 °C 2,8 °C 92 % 1025,4 hPa 0,0 l/m² 0 min 91 W/m² 12,9 km/h (3 Bft) 97,87 %
24.04.2026 08:28 5,6 °C 6,1 °C 2,8 °C 92 % 1025,5 hPa 0,0 l/m² 0 min 92 W/m² 6,4 km/h (2 Bft) 100,00 %
24.04.2026 08:30 5,6 °C 6,1 °C 2,8 °C 92 % 1025,5 hPa 0,0 l/m² 0 min 77 W/m² 6,4 km/h (2 Bft) 100,00 %
24.04.2026 08:32 5,7 °C 6,1 °C 2,8 °C 92 % 1025,5 hPa 0,0 l/m² 0 min 74 W/m² 6,4 km/h (2 Bft) 100,00 %
24.04.2026 08:34 5,7 °C 6,1 °C 2,8 °C 92 % 1025,5 hPa 0,0 l/m² 0 min 77 W/m² 6,4 km/h (2 Bft) 97,83 %
24.04.2026 08:36 5,7 °C 6,1 °C 2,8 °C 92 % 1025,4 hPa 0,0 l/m² 0 min 82 W/m² 9,7 km/h (2 Bft) 100,00 %
24.04.2026 08:38 5,7 °C 6,1 °C 2,8 °C 91 % 1025,4 hPa 0,0 l/m² 0 min 93 W/m² 12,9 km/h (3 Bft) 97,87 %
24.04.2026 08:40 5,7 °C 6,1 °C 2,8 °C 91 % 1025,4 hPa 0,0 l/m² 0 min 116 W/m² 9,7 km/h (2 Bft) 100,00 %
24.04.2026 08:42 5,7 °C 6,1 °C 2,8 °C 91 % 1025,4 hPa 0,0 l/m² 0 min 137 W/m² 3,2 km/h (1 Bft) 100,00 %
24.04.2026 08:44 5,8 °C 6,7 °C 3,3 °C 91 % 1025,4 hPa 0,0 l/m² 0 min 126 W/m² 6,4 km/h (2 Bft) 100,00 %
24.04.2026 08:46 5,8 °C 6,1 °C 2,8 °C 91 % 1025,4 hPa 0,0 l/m² 0 min 102 W/m² 3,2 km/h (1 Bft) 100,00 %
24.04.2026 08:48 5,8 °C 6,1 °C 3,3 °C 91 % 1025,4 hPa 0,0 l/m² 0 min 106 W/m² 6,4 km/h (2 Bft) 100,00 %
24.04.2026 08:50 5,8 °C 6,7 °C 2,8 °C 91 % 1025,4 hPa 0,0 l/m² 0 min 116 W/m² 6,4 km/h (2 Bft) 100,00 %
24.04.2026 08:52 5,9 °C 6,7 °C 3,3 °C 91 % 1025,4 hPa 0,0 l/m² 0 min 117 W/m² 3,2 km/h (1 Bft) 100,00 %
24.04.2026 08:54 5,9 °C 6,7 °C 3,3 °C 91 % 1025,4 hPa 0,0 l/m² 0 min 91 W/m² 16,1 km/h (3 Bft) 100,00 %
24.04.2026 08:56 5,9 °C 6,7 °C 2,8 °C 91 % 1025,4 hPa 0,0 l/m² 0 min 99 W/m² 12,9 km/h (3 Bft) 100,00 %
24.04.2026 08:58 5,9 °C 6,7 °C 2,8 °C 90 % 1025,4 hPa 0,0 l/m² 0 min 124 W/m² 9,7 km/h (2 Bft) 98,00 %
24.04.2026 09:00 5,9 °C 6,7 °C 2,8 °C 90 % 1025,5 hPa 0,0 l/m² 0 min 117 W/m² 16,1 km/h (3 Bft) 97,87 %
24.04.2026 09:02 5,9 °C 6,7 °C 3,3 °C 90 % 1025,4 hPa 0,0 l/m² 0 min 147 W/m² 12,9 km/h (3 Bft) 97,87 %
24.04.2026 09:04 6,0 °C 6,7 °C 3,3 °C 90 % 1025,5 hPa 0,0 l/m² 0 min 150 W/m² 16,1 km/h (3 Bft) 100,00 %
24.04.2026 09:06 6,0 °C 6,7 °C 3,3 °C 90 % 1025,5 hPa 0,0 l/m² 0 min 152 W/m² 16,1 km/h (3 Bft) 98,36 %
24.04.2026 09:08 6,0 °C 6,7 °C 3,3 °C 90 % 1025,5 hPa 0,0 l/m² 0 min 179 W/m² 6,4 km/h (2 Bft) 97,22 %
24.04.2026 09:10 6,1 °C 7,2 °C 3,3 °C 90 % 1025,4 hPa 0,0 l/m² 0 min 150 W/m² 3,2 km/h (1 Bft) 100,00 %
24.04.2026 09:12 6,1 °C 7,2 °C 3,3 °C 90 % 1025,4 hPa 0,0 l/m² 0 min 156 W/m² 6,4 km/h (2 Bft) 97,87 %
24.04.2026 09:14 6,1 °C 7,2 °C 3,3 °C 90 % 1025,4 hPa 0,0 l/m² 0 min 147 W/m² 6,4 km/h (2 Bft) 100,00 %
24.04.2026 09:16 6,1 °C 6,7 °C 3,3 °C 89 % 1025,5 hPa 0,0 l/m² 0 min 159 W/m² 6,4 km/h (2 Bft) 95,74 %
24.04.2026 09:18 6,1 °C 7,2 °C 3,3 °C 89 % 1025,4 hPa 0,0 l/m² 0 min 153 W/m² 3,2 km/h (1 Bft) 100,00 %
24.04.2026 09:20 6,2 °C 7,2 °C 3,3 °C 89 % 1025,4 hPa 0,0 l/m² 0 min 167 W/m² 6,4 km/h (2 Bft) 96,00 %
24.04.2026 09:22 6,2 °C 7,2 °C 3,9 °C 89 % 1025,4 hPa 0,0 l/m² 0 min 180 W/m² 9,7 km/h (2 Bft) 97,56 %
24.04.2026 09:24 6,3 °C 7,8 °C 3,9 °C 89 % 1025,4 hPa 0,0 l/m² 0 min 177 W/m² 12,9 km/h (3 Bft) 93,62 %
24.04.2026 09:26 6,3 °C 7,2 °C 3,9 °C 89 % 1025,5 hPa 0,0 l/m² 0 min 158 W/m² 9,7 km/h (2 Bft) 93,62 %
24.04.2026 09:28 6,4 °C 7,2 °C 3,9 °C 89 % 1025,4 hPa 0,0 l/m² 0 min 134 W/m² 12,9 km/h (3 Bft) 91,84 %
24.04.2026 09:30 6,4 °C 7,2 °C 3,9 °C 89 % 1025,5 hPa 0,0 l/m² 0 min 137 W/m² 6,4 km/h (2 Bft) 96,00 %
24.04.2026 09:32 6,4 °C 6,7 °C 3,3 °C 88 % 1025,5 hPa 0,0 l/m² 0 min 135 W/m² 12,9 km/h (3 Bft) 95,74 %
24.04.2026 09:34 6,4 °C 6,7 °C 3,3 °C 88 % 1025,5 hPa 0,0 l/m² 0 min 128 W/m² 12,9 km/h (3 Bft) 92,00 %
24.04.2026 09:36 6,4 °C 6,7 °C 3,3 °C 88 % 1025,5 hPa 0,0 l/m² 0 min 121 W/m² 9,7 km/h (2 Bft) 97,87 %
24.04.2026 09:38 6,4 °C 7,2 °C 3,3 °C 88 % 1025,5 hPa 0,0 l/m² 0 min 126 W/m² 9,7 km/h (2 Bft) 93,62 %
24.04.2026 09:40 6,5 °C 7,2 °C 3,9 °C 88 % 1025,5 hPa 0,0 l/m² 0 min 144 W/m² 6,4 km/h (2 Bft) 94,74 %
24.04.2026 09:42 6,6 °C 7,8 °C 3,9 °C 88 % 1025,6 hPa 0,0 l/m² 0 min 171 W/m² 9,7 km/h (2 Bft) 95,92 %
24.04.2026 09:44 6,6 °C 7,8 °C 3,9 °C 88 % 1025,6 hPa 0,0 l/m² 0 min 148 W/m² 9,7 km/h (2 Bft) 95,74 %
24.04.2026 09:46 6,7 °C 7,8 °C 3,9 °C 88 % 1025,6 hPa 0,0 l/m² 0 min 171 W/m² 16,1 km/h (3 Bft) 96,00 %
24.04.2026 09:48 6,7 °C 7,8 °C 3,9 °C 88 % 1025,6 hPa 0,0 l/m² 0 min 185 W/m² 16,1 km/h (3 Bft) 94,00 %
24.04.2026 09:50 6,7 °C 7,8 °C 3,9 °C 88 % 1025,7 hPa 0,0 l/m² 0 min 158 W/m² 9,7 km/h (2 Bft) 95,12 %
24.04.2026 09:52 6,8 °C 7,8 °C 3,9 °C 87 % 1025,7 hPa 0,0 l/m² 0 min 188 W/m² 9,7 km/h (2 Bft) 95,74 %
24.04.2026 09:54 6,9 °C 8,3 °C 3,9 °C 87 % 1025,7 hPa 0,0 l/m² 0 min 226 W/m² 9,7 km/h (2 Bft) 97,87 %
24.04.2026 09:56 6,9 °C 9,4 °C 4,4 °C 87 % 1025,6 hPa 0,0 l/m² 2 min 286 W/m² 6,4 km/h (2 Bft) 94,00 %
24.04.2026 09:58 7,1 °C 10,6 °C 4,4 °C 87 % 1025,7 hPa 0,0 l/m² 2 min 372 W/m² 6,4 km/h (2 Bft) 95,74 %
24.04.2026 10:00 7,2 °C 10,6 °C 5,0 °C 87 % 1025,7 hPa 0,0 l/m² 2 min 390 W/m² 6,4 km/h (2 Bft) 97,83 %
24.04.2026 10:02 7,3 °C 9,4 °C 5,0 °C 87 % 1025,7 hPa 0,0 l/m² 0 min 242 W/m² 9,7 km/h (2 Bft) 98,00 %
24.04.2026 10:04 7,4 °C 10,0 °C 5,0 °C 86 % 1025,7 hPa 0,0 l/m² 2 min 304 W/m² 6,4 km/h (2 Bft) 97,87 %
24.04.2026 10:06 7,6 °C 10,6 °C 5,0 °C 86 % 1025,7 hPa 0,0 l/m² 2 min 350 W/m² 16,1 km/h (3 Bft) 97,87 %
24.04.2026 10:08 7,7 °C 10,6 °C 5,6 °C 86 % 1025,6 hPa 0,0 l/m² 2 min 306 W/m² 19,3 km/h (3 Bft) 97,37 %
24.04.2026 10:10 7,8 °C 10,6 °C 5,6 °C 85 % 1025,7 hPa 0,0 l/m² 2 min 292 W/m² 6,4 km/h (2 Bft) 100,00 %
24.04.2026 10:12 7,8 °C 10,0 °C 5,6 °C 85 % 1025,7 hPa 0,0 l/m² 2 min 280 W/m² 12,9 km/h (3 Bft) 97,87 %
24.04.2026 10:14 7,9 °C 10,6 °C 5,6 °C 84 % 1025,7 hPa 0,0 l/m² 2 min 384 W/m² 25,7 km/h (4 Bft) 97,87 %
24.04.2026 10:16 8,1 °C 12,2 °C 5,6 °C 84 % 1025,7 hPa 0,0 l/m² 2 min 698 W/m² 12,9 km/h (3 Bft) 100,00 %
24.04.2026 10:18 8,1 °C 13,9 °C 5,6 °C 84 % 1025,7 hPa 0,0 l/m² 2 min 740 W/m² 16,1 km/h (3 Bft) 100,00 %
24.04.2026 10:20 8,3 °C 14,4 °C 6,7 °C 84 % 1025,7 hPa 0,0 l/m² 2 min 696 W/m² 12,9 km/h (3 Bft) 100,00 %
24.04.2026 10:22 8,5 °C 14,4 °C 6,7 °C 83 % 1025,6 hPa 0,0 l/m² 2 min 385 W/m² 12,9 km/h (3 Bft) 98,00 %
24.04.2026 10:24 8,6 °C 14,4 °C 6,7 °C 83 % 1025,7 hPa 0,0 l/m² 2 min 406 W/m² 16,1 km/h (3 Bft) 97,87 %
24.04.2026 10:26 8,8 °C 14,4 °C 7,8 °C 82 % 1025,6 hPa 0,0 l/m² 2 min 592 W/m² 6,4 km/h (2 Bft) 96,00 %
24.04.2026 10:28 8,8 °C 13,3 °C 7,8 °C 81 % 1025,6 hPa 0,0 l/m² 2 min 714 W/m² 9,7 km/h (2 Bft) 100,00 %
24.04.2026 10:30 8,9 °C 13,3 °C 8,3 °C 81 % 1025,6 hPa 0,0 l/m² 2 min 733 W/m² 6,4 km/h (2 Bft) 100,00 %
24.04.2026 10:32 9,1 °C 13,3 °C 8,3 °C 81 % 1025,6 hPa 0,0 l/m² 2 min 715 W/m² 9,7 km/h (2 Bft) 98,28 %
24.04.2026 10:34 9,2 °C 12,8 °C 7,8 °C 80 % 1025,6 hPa 0,0 l/m² 2 min 715 W/m² 9,7 km/h (2 Bft) 100,00 %
24.04.2026 10:36 9,3 °C 12,2 °C 7,2 °C 80 % 1025,6 hPa 0,0 l/m² 2 min 648 W/m² 12,9 km/h (3 Bft) 97,83 %
24.04.2026 10:38 9,3 °C 11,7 °C 7,2 °C 79 % 1025,6 hPa 0,0 l/m² 0 min 230 W/m² 9,7 km/h (2 Bft) 98,00 %
24.04.2026 10:40 9,2 °C 11,1 °C 6,1 °C 79 % 1025,6 hPa 0,0 l/m² 0 min 234 W/m² 6,4 km/h (2 Bft) 97,87 %
24.04.2026 10:42 9,3 °C 11,7 °C 6,7 °C 79 % 1025,6 hPa 0,0 l/m² 0 min 256 W/m² 12,9 km/h (3 Bft) 95,74 %
24.04.2026 10:44 9,3 °C 12,2 °C 6,7 °C 79 % 1025,5 hPa 0,0 l/m² 2 min 355 W/m² 6,4 km/h (2 Bft) 100,00 %
24.04.2026 10:46 9,4 °C 11,7 °C 6,7 °C 79 % 1025,5 hPa 0,0 l/m² 2 min 573 W/m² 9,7 km/h (2 Bft) 100,00 %
24.04.2026 10:48 9,4 °C 11,7 °C 6,7 °C 79 % 1025,5 hPa 0,0 l/m² 0 min 304 W/m² 16,1 km/h (3 Bft) 100,00 %
24.04.2026 10:50 9,5 °C 12,2 °C 7,2 °C 79 % 1025,5 hPa 0,0 l/m² 2 min 388 W/m² 6,4 km/h (2 Bft) 97,83 %
24.04.2026 10:52 9,6 °C 12,8 °C 6,7 °C 78 % 1025,5 hPa 0,0 l/m² 2 min 620 W/m² 9,7 km/h (2 Bft) 100,00 %
24.04.2026 10:54 9,7 °C 13,9 °C 7,2 °C 78 % 1025,5 hPa 0,0 l/m² 2 min 652 W/m² 6,4 km/h (2 Bft) 97,87 %
24.04.2026 10:56 9,8 °C 14,4 °C 6,7 °C 78 % 1025,5 hPa 0,0 l/m² 2 min 613 W/m² 6,4 km/h (2 Bft) 100,00 %
24.04.2026 10:58 9,9 °C 15,6 °C 6,7 °C 78 % 1025,5 hPa 0,0 l/m² 2 min 690 W/m² 16,1 km/h (3 Bft) 100,00 %
24.04.2026 11:00 9,9 °C 15,6 °C 6,7 °C 77 % 1025,6 hPa 0,0 l/m² 2 min 695 W/m² 12,9 km/h (3 Bft) 97,37 %
24.04.2026 11:02 10,0 °C 15,6 °C 6,7 °C 77 % 1025,5 hPa 0,0 l/m² 2 min 674 W/m² 12,9 km/h (3 Bft) 97,87 %
24.04.2026 11:04 10,1 °C 15,6 °C 6,7 °C 77 % 1025,5 hPa 0,0 l/m² 2 min 676 W/m² 16,1 km/h (3 Bft) 100,00 %
24.04.2026 11:06 10,2 °C 15,6 °C 6,7 °C 77 % 1025,6 hPa 0,0 l/m² 2 min 703 W/m² 16,1 km/h (3 Bft) 100,00 %
24.04.2026 11:08 10,2 °C 14,4 °C 6,1 °C 76 % 1025,5 hPa 0,0 l/m² 2 min 662 W/m² 16,1 km/h (3 Bft) 95,74 %
24.04.2026 11:10 10,3 °C 14,4 °C 6,7 °C 76 % 1025,5 hPa 0,0 l/m² 2 min 665 W/m² 19,3 km/h (3 Bft) 100,00 %
24.04.2026 11:12 10,3 °C 13,9 °C 6,7 °C 75 % 1025,5 hPa 0,0 l/m² 2 min 655 W/m² 12,9 km/h (3 Bft) 100,00 %
24.04.2026 11:14 10,4 °C 15,6 °C 6,7 °C 76 % 1025,5 hPa 0,0 l/m² 2 min 709 W/m² 9,7 km/h (2 Bft) 100,00 %
24.04.2026 11:16 10,5 °C 16,7 °C 7,2 °C 75 % 1025,4 hPa 0,0 l/m² 2 min 701 W/m² 12,9 km/h (3 Bft) 100,00 %
24.04.2026 11:18 10,6 °C 15,6 °C 6,7 °C 76 % 1025,5 hPa 0,0 l/m² 2 min 727 W/m² 12,9 km/h (3 Bft) 98,00 %
24.04.2026 11:20 10,6 °C 14,4 °C 6,7 °C 74 % 1025,4 hPa 0,0 l/m² 2 min 693 W/m² 9,7 km/h (2 Bft) 100,00 %
24.04.2026 11:22 10,6 °C 14,4 °C 7,2 °C 75 % 1025,4 hPa 0,0 l/m² 2 min 715 W/m² 6,4 km/h (2 Bft) 97,87 %
24.04.2026 11:24 10,7 °C 14,4 °C 7,2 °C 75 % 1025,4 hPa 0,0 l/m² 2 min 705 W/m² 12,9 km/h (3 Bft) 97,83 %
24.04.2026 11:26 10,8 °C 14,4 °C 7,2 °C 75 % 1025,3 hPa 0,0 l/m² 2 min 700 W/m² 19,3 km/h (3 Bft) 100,00 %
24.04.2026 11:28 10,9 °C 14,4 °C 7,8 °C 75 % 1025,3 hPa 0,0 l/m² 2 min 708 W/m² 16,1 km/h (3 Bft) 95,74 %
24.04.2026 11:30 10,9 °C 14,4 °C 7,8 °C 74 % 1025,2 hPa 0,0 l/m² 2 min 709 W/m² 16,1 km/h (3 Bft) 100,00 %
24.04.2026 11:32 10,9 °C 14,4 °C 7,8 °C 74 % 1025,2 hPa 0,0 l/m² 2 min 707 W/m² 12,9 km/h (3 Bft) 100,00 %
24.04.2026 11:34 11,1 °C 14,4 °C 8,3 °C 74 % 1025,2 hPa 0,0 l/m² 2 min 749 W/m² 16,1 km/h (3 Bft) 100,00 %
24.04.2026 11:36 11,1 °C 15,0 °C 7,8 °C 74 % 1025,2 hPa 0,0 l/m² 2 min 729 W/m² 12,9 km/h (3 Bft) 94,74 %
24.04.2026 11:38 11,2 °C 16,1 °C 7,8 °C 74 % 1025,2 hPa 0,0 l/m² 2 min 736 W/m² 12,9 km/h (3 Bft) 97,87 %
24.04.2026 11:40 11,1 °C 18,3 °C 7,8 °C 74 % 1025,1 hPa 0,0 l/m² 2 min 757 W/m² 9,7 km/h (2 Bft) 97,87 %
24.04.2026 11:42 11,2 °C 17,2 °C 7,8 °C 74 % 1025,1 hPa 0,0 l/m² 2 min 745 W/m² 22,5 km/h (4 Bft) 98,00 %
24.04.2026 11:44 11,2 °C 16,1 °C 8,3 °C 74 % 1025,1 hPa 0,0 l/m² 2 min 711 W/m² 12,9 km/h (3 Bft) 95,92 %
24.04.2026 11:46 11,3 °C 15,6 °C 9,4 °C 73 % 1025,1 hPa 0,0 l/m² 2 min 745 W/m² 9,7 km/h (2 Bft) 95,74 %
24.04.2026 11:48 11,4 °C 15,6 °C 10,6 °C 73 % 1025,2 hPa 0,0 l/m² 2 min 750 W/m² 16,1 km/h (3 Bft) 94,74 %
24.04.2026 11:50 11,6 °C 15,6 °C 10,6 °C 73 % 1025,1 hPa 0,0 l/m² 2 min 726 W/m² 9,7 km/h (2 Bft) 95,74 %
24.04.2026 11:52 11,8 °C 14,4 °C 10,6 °C 73 % 1025,1 hPa 0,0 l/m² 2 min 766 W/m² 6,4 km/h (2 Bft) 95,92 %
24.04.2026 11:54 11,8 °C 15,0 °C 11,1 °C 72 % 1025,2 hPa 0,0 l/m² 2 min 740 W/m² 6,4 km/h (2 Bft) 95,74 %
24.04.2026 11:56 11,9 °C 17,2 °C 10,6 °C 72 % 1025,1 hPa 0,0 l/m² 2 min 711 W/m² 16,1 km/h (3 Bft) 91,49 %
24.04.2026 11:58 12,1 °C 18,9 °C 11,1 °C 71 % 1025,1 hPa 0,0 l/m² 2 min 760 W/m² 9,7 km/h (2 Bft) 94,00 %
24.04.2026 12:00 12,2 °C 19,4 °C 11,1 °C 71 % 1025,1 hPa 0,0 l/m² 2 min 761 W/m² 12,9 km/h (3 Bft) 95,74 %
24.04.2026 12:02 12,3 °C 20,0 °C 11,7 °C 71 % 1025,0 hPa 0,0 l/m² 2 min 784 W/m² 16,1 km/h (3 Bft) 95,92 %
24.04.2026 12:04 12,3 °C 21,1 °C 11,1 °C 69 % 1025,1 hPa 0,0 l/m² 2 min 809 W/m² 12,9 km/h (3 Bft) 95,24 %
24.04.2026 12:06 12,4 °C 22,2 °C 12,2 °C 70 % 1025,1 hPa 0,0 l/m² 2 min 804 W/m² 16,1 km/h (3 Bft) 93,75 %
24.04.2026 12:08 12,6 °C 22,2 °C 12,8 °C 70 % 1025,0 hPa 0,0 l/m² 2 min 791 W/m² 9,7 km/h (2 Bft) 96,00 %
24.04.2026 12:10 12,7 °C 22,8 °C 12,8 °C 70 % 1025,0 hPa 0,0 l/m² 2 min 784 W/m² 19,3 km/h (3 Bft) 95,74 %
24.04.2026 12:12 12,8 °C 23,3 °C 12,8 °C 70 % 1025,0 hPa 0,0 l/m² 2 min 789 W/m² 9,7 km/h (2 Bft) 96,00 %
24.04.2026 12:14 13,0 °C 22,2 °C 12,8 °C 69 % 1025,0 hPa 0,0 l/m² 2 min 738 W/m² 19,3 km/h (3 Bft) 91,49 %
24.04.2026 12:16 13,1 °C 22,8 °C 12,8 °C 69 % 1025,0 hPa 0,0 l/m² 2 min 702 W/m² 6,4 km/h (2 Bft) 94,29 %
24.04.2026 12:18 13,2 °C 23,9 °C 12,2 °C 69 % 1025,0 hPa 0,0 l/m² 2 min 796 W/m² 12,9 km/h (3 Bft) 94,00 %
24.04.2026 12:20 13,3 °C 22,8 °C 12,8 °C 69 % 1024,9 hPa 0,0 l/m² 2 min 810 W/m² 6,4 km/h (2 Bft) 95,65 %
24.04.2026 12:22 13,4 °C 23,3 °C 13,3 °C 68 % 1024,9 hPa 0,0 l/m² 2 min 812 W/m² 9,7 km/h (2 Bft) 98,00 %
24.04.2026 12:24 13,4 °C 23,3 °C 14,4 °C 69 % 1024,9 hPa 0,0 l/m² 2 min 824 W/m² 9,7 km/h (2 Bft) 97,87 %
24.04.2026 12:26 13,5 °C 23,3 °C 16,1 °C 68 % 1024,8 hPa 0,0 l/m² 2 min 823 W/m² 12,9 km/h (3 Bft) 95,74 %
24.04.2026 12:28 13,6 °C 23,3 °C 16,7 °C 68 % 1024,8 hPa 0,0 l/m² 2 min 812 W/m² 12,9 km/h (3 Bft) 100,00 %
24.04.2026 12:30 13,6 °C 22,8 °C 17,2 °C 67 % 1024,8 hPa 0,0 l/m² 2 min 813 W/m² 9,7 km/h (2 Bft) 97,87 %
24.04.2026 12:32 13,7 °C 23,3 °C 17,8 °C 67 % 1024,8 hPa 0,0 l/m² 2 min 805 W/m² 9,7 km/h (2 Bft) 100,00 %
24.04.2026 12:34 13,8 °C 22,8 °C 18,3 °C 67 % 1024,9 hPa 0,0 l/m² 2 min 800 W/m² 6,4 km/h (2 Bft) 97,83 %
24.04.2026 12:36 13,8 °C 23,3 °C 18,9 °C 67 % 1024,8 hPa 0,0 l/m² 2 min 815 W/m² 16,1 km/h (3 Bft) 97,87 %
24.04.2026 12:38 14,0 °C 24,4 °C 18,9 °C 68 % 1024,7 hPa 0,0 l/m² 2 min 824 W/m² 16,1 km/h (3 Bft) 98,00 %
24.04.2026 12:40 14,2 °C 23,9 °C 19,4 °C 66 % 1024,7 hPa 0,0 l/m² 2 min 826 W/m² 12,9 km/h (3 Bft) 100,00 %
24.04.2026 12:42 14,3 °C 23,9 °C 18,9 °C 66 % 1024,7 hPa 0,0 l/m² 2 min 803 W/m² 12,9 km/h (3 Bft) 100,00 %
24.04.2026 12:44 14,3 °C 25,0 °C 18,9 °C 66 % 1024,7 hPa 0,0 l/m² 2 min 808 W/m² 9,7 km/h (2 Bft) 100,00 %
24.04.2026 12:46 14,5 °C 24,4 °C 19,4 °C 66 % 1024,7 hPa 0,0 l/m² 2 min 812 W/m² 9,7 km/h (2 Bft) 100,00 %
24.04.2026 12:48 14,6 °C 23,9 °C 18,9 °C 65 % 1024,6 hPa 0,0 l/m² 2 min 815 W/m² 16,1 km/h (3 Bft) 100,00 %
24.04.2026 12:50 14,6 °C 23,3 °C 18,9 °C 64 % 1024,6 hPa 0,0 l/m² 2 min 819 W/m² 9,7 km/h (2 Bft) 100,00 %
24.04.2026 12:52 14,5 °C 22,8 °C 19,4 °C 64 % 1024,6 hPa 0,0 l/m² 2 min 819 W/m² 6,4 km/h (2 Bft) 100,00 %
24.04.2026 12:54 14,5 °C 22,8 °C 20,0 °C 65 % 1024,6 hPa 0,0 l/m² 2 min 814 W/m² 12,9 km/h (3 Bft) 100,00 %
24.04.2026 12:56 14,4 °C 22,2 °C 19,4 °C 65 % 1024,6 hPa 0,0 l/m² 2 min 803 W/m² 9,7 km/h (2 Bft) 97,83 %
24.04.2026 12:58 14,4 °C 23,3 °C 20,0 °C 65 % 1024,6 hPa 0,0 l/m² 2 min 832 W/m² 12,9 km/h (3 Bft) 100,00 %
24.04.2026 13:00 14,3 °C 22,8 °C 19,4 °C 65 % 1024,6 hPa 0,0 l/m² 2 min 824 W/m² 12,9 km/h (3 Bft) 100,00 %
24.04.2026 13:02 14,4 °C 23,3 °C 20,0 °C 65 % 1024,6 hPa 0,0 l/m² 2 min 829 W/m² 9,7 km/h (2 Bft) 100,00 %
24.04.2026 13:04 14,5 °C 23,9 °C 20,0 °C 66 % 1024,6 hPa 0,0 l/m² 2 min 813 W/m² 12,9 km/h (3 Bft) 100,00 %
24.04.2026 13:06 14,7 °C 25,0 °C 20,0 °C 66 % 1024,6 hPa 0,0 l/m² 2 min 839 W/m² 12,9 km/h (3 Bft) 100,00 %
24.04.2026 13:08 14,8 °C 25,0 °C 20,0 °C 65 % 1024,6 hPa 0,0 l/m² 2 min 824 W/m² 16,1 km/h (3 Bft) 97,37 %
24.04.2026 13:10 14,9 °C 25,6 °C 20,0 °C 65 % 1024,6 hPa 0,0 l/m² 2 min 842 W/m² 9,7 km/h (2 Bft) 100,00 %
24.04.2026 13:12 15,0 °C 25,0 °C 20,6 °C 64 % 1024,5 hPa 0,0 l/m² 2 min 853 W/m² 9,7 km/h (2 Bft) 100,00 %
24.04.2026 13:14 15,1 °C 25,0 °C 18,9 °C 64 % 1024,5 hPa 0,0 l/m² 2 min 821 W/m² 16,1 km/h (3 Bft) 100,00 %
24.04.2026 13:16 15,2 °C 25,6 °C 19,4 °C 63 % 1024,5 hPa 0,0 l/m² 2 min 821 W/m² 19,3 km/h (3 Bft) 100,00 %
24.04.2026 13:18 15,2 °C 24,4 °C 20,0 °C 62 % 1024,4 hPa 0,0 l/m² 2 min 840 W/m² 12,9 km/h (3 Bft) 100,00 %
24.04.2026 13:20 15,2 °C 24,4 °C 20,6 °C 63 % 1024,4 hPa 0,0 l/m² 2 min 810 W/m² 16,1 km/h (3 Bft) 100,00 %
24.04.2026 13:22 15,3 °C 24,4 °C 20,6 °C 63 % 1024,4 hPa 0,0 l/m² 2 min 821 W/m² 16,1 km/h (3 Bft) 97,87 %
24.04.2026 13:24 15,5 °C 23,9 °C 20,6 °C 62 % 1024,4 hPa 0,0 l/m² 2 min 822 W/m² 19,3 km/h (3 Bft) 97,87 %
24.04.2026 13:26 15,6 °C 24,4 °C 20,0 °C 62 % 1024,3 hPa 0,0 l/m² 2 min 853 W/m² 22,5 km/h (4 Bft) 100,00 %
24.04.2026 13:28 15,6 °C 23,9 °C 19,4 °C 61 % 1024,3 hPa 0,0 l/m² 2 min 817 W/m² 12,9 km/h (3 Bft) 97,83 %
24.04.2026 13:30 15,6 °C 25,0 °C 20,0 °C 62 % 1024,4 hPa 0,0 l/m² 2 min 856 W/m² 16,1 km/h (3 Bft) 95,74 %
24.04.2026 13:32 15,8 °C 25,6 °C 20,0 °C 62 % 1024,3 hPa 0,0 l/m² 2 min 860 W/m² 16,1 km/h (3 Bft) 100,00 %
24.04.2026 13:34 15,9 °C 26,1 °C 20,6 °C 61 % 1024,3 hPa 0,0 l/m² 2 min 866 W/m² 16,1 km/h (3 Bft) 100,00 %
24.04.2026 13:36 16,1 °C 26,1 °C 20,6 °C 61 % 1024,3 hPa 0,0 l/m² 2 min 861 W/m² 19,3 km/h (3 Bft) 100,00 %
24.04.2026 13:38 16,2 °C 26,7 °C 20,6 °C 60 % 1024,3 hPa 0,0 l/m² 2 min 840 W/m² 9,7 km/h (2 Bft) 97,87 %
24.04.2026 13:40 16,3 °C 26,1 °C 21,1 °C 61 % 1024,3 hPa 0,0 l/m² 2 min 843 W/m² 12,9 km/h (3 Bft) 97,87 %
24.04.2026 13:42 16,4 °C 26,1 °C 20,0 °C 60 % 1024,2 hPa 0,0 l/m² 2 min 856 W/m² 16,1 km/h (3 Bft) 100,00 %
24.04.2026 13:44 16,6 °C 26,1 °C 18,9 °C 59 % 1024,2 hPa 0,0 l/m² 2 min 860 W/m² 12,9 km/h (3 Bft) 97,83 %
24.04.2026 13:46 16,6 °C 26,1 °C 17,8 °C 59 % 1024,2 hPa 0,0 l/m² 2 min 836 W/m² 19,3 km/h (3 Bft) 97,87 %
24.04.2026 13:48 16,7 °C 26,1 °C 17,8 °C 59 % 1024,3 hPa 0,0 l/m² 2 min 832 W/m² 22,5 km/h (4 Bft) 95,74 %
24.04.2026 13:50 16,7 °C 25,0 °C 16,7 °C 59 % 1024,2 hPa 0,0 l/m² 2 min 847 W/m² 19,3 km/h (3 Bft) 93,62 %
24.04.2026 13:52 16,7 °C 25,6 °C 16,1 °C 59 % 1024,2 hPa 0,0 l/m² 2 min 847 W/m² 6,4 km/h (2 Bft) 97,87 %
24.04.2026 13:54 16,7 °C 25,6 °C 15,6 °C 59 % 1024,2 hPa 0,0 l/m² 2 min 844 W/m² 12,9 km/h (3 Bft) 97,87 %
24.04.2026 13:56 16,8 °C 25,0 °C 14,4 °C 59 % 1024,1 hPa 0,0 l/m² 2 min 831 W/m² 19,3 km/h (3 Bft) 97,37 %
24.04.2026 13:58 16,8 °C 25,0 °C 14,4 °C 59 % 1024,0 hPa 0,0 l/m² 2 min 841 W/m² 16,1 km/h (3 Bft) 95,74 %
24.04.2026 14:00 16,8 °C 25,0 °C 14,4 °C 59 % 1024,0 hPa 0,0 l/m² 2 min 845 W/m² 22,5 km/h (4 Bft) 97,87 %
24.04.2026 14:02 16,8 °C 24,4 °C 13,9 °C 59 % 1024,0 hPa 0,0 l/m² 2 min 842 W/m² 19,3 km/h (3 Bft) 98,00 %
24.04.2026 14:04 16,9 °C 25,6 °C 13,9 °C 58 % 1024,0 hPa 0,0 l/m² 2 min 858 W/m² 19,3 km/h (3 Bft) 95,92 %
24.04.2026 14:06 17,0 °C 25,6 °C 13,9 °C 58 % 1024,0 hPa 0,0 l/m² 2 min 820 W/m² 16,1 km/h (3 Bft) 95,74 %
24.04.2026 14:08 17,1 °C 26,1 °C 14,4 °C 58 % 1024,0 hPa 0,0 l/m² 2 min 833 W/m² 29,0 km/h (5 Bft) 96,00 %
24.04.2026 14:10 17,2 °C 26,7 °C 14,4 °C 58 % 1024,0 hPa 0,0 l/m² 2 min 844 W/m² 22,5 km/h (4 Bft) 95,74 %
24.04.2026 14:12 17,3 °C 26,7 °C 14,4 °C 58 % 1024,0 hPa 0,0 l/m² 2 min 838 W/m² 19,3 km/h (3 Bft) 97,87 %
24.04.2026 14:14 17,4 °C 27,2 °C 13,9 °C 57 % 1023,9 hPa 0,0 l/m² 2 min 835 W/m² 19,3 km/h (3 Bft) 97,87 %
24.04.2026 14:16 17,5 °C 26,7 °C 13,9 °C 57 % 1023,9 hPa 0,0 l/m² 2 min 818 W/m² 12,9 km/h (3 Bft) 97,87 %
24.04.2026 14:18 17,4 °C 25,6 °C 13,9 °C 57 % 1023,9 hPa 0,0 l/m² 2 min 852 W/m² 9,7 km/h (2 Bft) 97,87 %
24.04.2026 14:20 17,5 °C 27,2 °C 13,9 °C 57 % 1023,9 hPa 0,0 l/m² 2 min 838 W/m² 9,7 km/h (2 Bft) 97,83 %
24.04.2026 14:22 17,6 °C 27,2 °C 13,9 °C 57 % 1023,8 hPa 0,0 l/m² 2 min 827 W/m² 9,7 km/h (2 Bft) 95,74 %
24.04.2026 14:24 17,7 °C 26,7 °C 13,9 °C 57 % 1023,8 hPa 0,0 l/m² 2 min 826 W/m² 16,1 km/h (3 Bft) 94,44 %
24.04.2026 14:26 17,7 °C 26,1 °C 13,9 °C 57 % 1023,8 hPa 0,0 l/m² 2 min 819 W/m² 9,7 km/h (2 Bft) 95,65 %
24.04.2026 14:28 17,7 °C 25,6 °C 13,9 °C 57 % 1023,8 hPa 0,0 l/m² 2 min 802 W/m² 9,7 km/h (2 Bft) 95,74 %
24.04.2026 14:30 17,8 °C 26,1 °C 13,9 °C 57 % 1023,8 hPa 0,0 l/m² 2 min 792 W/m² 12,9 km/h (3 Bft) 96,43 %
24.04.2026 14:32 17,9 °C 26,7 °C 13,9 °C 56 % 1023,7 hPa 0,0 l/m² 2 min 784 W/m² 12,9 km/h (3 Bft) 94,00 %
24.04.2026 14:34 18,1 °C 27,8 °C 13,9 °C 55 % 1023,7 hPa 0,0 l/m² 2 min 801 W/m² 9,7 km/h (2 Bft) 97,14 %
24.04.2026 14:36 18,2 °C 27,8 °C 13,9 °C 56 % 1023,7 hPa 0,0 l/m² 2 min 799 W/m² 9,7 km/h (2 Bft) 93,62 %
24.04.2026 14:38 18,3 °C 27,8 °C 14,4 °C 55 % 1023,7 hPa 0,0 l/m² 2 min 808 W/m² 12,9 km/h (3 Bft) 94,00 %
24.04.2026 14:40 18,5 °C 27,8 °C 14,4 °C 54 % 1023,7 hPa 0,0 l/m² 2 min 806 W/m² 9,7 km/h (2 Bft) 95,74 %
24.04.2026 14:42 18,6 °C 28,3 °C 14,4 °C 54 % 1023,6 hPa 0,0 l/m² 2 min 804 W/m² 16,1 km/h (3 Bft) 91,84 %
24.04.2026 14:44 18,7 °C 27,8 °C 14,4 °C 53 % 1023,6 hPa 0,0 l/m² 2 min 813 W/m² 19,3 km/h (3 Bft) 95,74 %
24.04.2026 14:46 18,7 °C 27,8 °C 14,4 °C 54 % 1023,6 hPa 0,0 l/m² 2 min 823 W/m² 16,1 km/h (3 Bft) 95,74 %
24.04.2026 14:48 18,8 °C 28,3 °C 15,0 °C 54 % 1023,6 hPa 0,0 l/m² 2 min 817 W/m² 22,5 km/h (4 Bft) 95,74 %
24.04.2026 14:50 18,9 °C 28,3 °C 15,0 °C 54 % 1023,7 hPa 0,0 l/m² 2 min 820 W/m² 16,1 km/h (3 Bft) 95,74 %
24.04.2026 14:52 19,1 °C 28,9 °C 15,0 °C 53 % 1023,6 hPa 0,0 l/m² 2 min 803 W/m² 16,1 km/h (3 Bft) 92,00 %
24.04.2026 14:54 19,1 °C 27,8 °C 15,0 °C 53 % 1023,5 hPa 0,0 l/m² 2 min 810 W/m² 9,7 km/h (2 Bft) 95,74 %
24.04.2026 14:56 19,1 °C 27,8 °C 15,0 °C 52 % 1023,5 hPa 0,0 l/m² 2 min 794 W/m² 25,7 km/h (4 Bft) 95,65 %
24.04.2026 14:58 19,1 °C 27,2 °C 15,0 °C 52 % 1023,5 hPa 0,0 l/m² 2 min 802 W/m² 16,1 km/h (3 Bft) 95,12 %
24.04.2026 15:00 19,0 °C 26,1 °C 15,0 °C 52 % 1023,5 hPa 0,0 l/m² 2 min 790 W/m² 12,9 km/h (3 Bft) 96,00 %
24.04.2026 15:02 18,9 °C 25,6 °C 15,0 °C 53 % 1023,4 hPa 0,0 l/m² 2 min 780 W/m² 19,3 km/h (3 Bft) 95,74 %
24.04.2026 15:04 18,8 °C 26,1 °C 15,0 °C 52 % 1023,4 hPa 0,0 l/m² 2 min 773 W/m² 22,5 km/h (4 Bft) 95,74 %
24.04.2026 15:06 18,8 °C 25,0 °C 15,0 °C 53 % 1023,4 hPa 0,0 l/m² 2 min 776 W/m² 9,7 km/h (2 Bft) 98,00 %
24.04.2026 15:08 18,7 °C 25,6 °C 15,0 °C 53 % 1023,4 hPa 0,0 l/m² 2 min 766 W/m² 19,3 km/h (3 Bft) 97,87 %
24.04.2026 15:10 18,9 °C 26,7 °C 15,6 °C 54 % 1023,4 hPa 0,0 l/m² 2 min 779 W/m² 19,3 km/h (3 Bft) 94,74 %
24.04.2026 15:12 18,9 °C 26,1 °C 15,0 °C 52 % 1023,4 hPa 0,0 l/m² 2 min 779 W/m² 9,7 km/h (2 Bft) 97,87 %
24.04.2026 15:14 18,9 °C 27,2 °C 15,0 °C 52 % 1023,4 hPa 0,0 l/m² 2 min 782 W/m² 12,9 km/h (3 Bft) 97,87 %
24.04.2026 15:16 19,1 °C 27,2 °C 15,6 °C 52 % 1023,3 hPa 0,0 l/m² 2 min 779 W/m² 9,7 km/h (2 Bft) 95,92 %
24.04.2026 15:18 19,1 °C 26,1 °C 15,6 °C 52 % 1023,3 hPa 0,0 l/m² 2 min 774 W/m² 6,4 km/h (2 Bft) 96,00 %
24.04.2026 15:20 19,2 °C 26,7 °C 15,6 °C 53 % 1023,3 hPa 0,0 l/m² 2 min 767 W/m² 12,9 km/h (3 Bft) 95,74 %
24.04.2026 15:22 19,3 °C 26,7 °C 15,6 °C 52 % 1023,3 hPa 0,0 l/m² 2 min 775 W/m² 25,7 km/h (4 Bft) 100,00 %
24.04.2026 15:24 19,3 °C 26,7 °C 15,6 °C 50 % 1023,3 hPa 0,0 l/m² 2 min 768 W/m² 12,9 km/h (3 Bft) 100,00 %
24.04.2026 15:26 19,4 °C 26,7 °C 16,1 °C 51 % 1023,3 hPa 0,0 l/m² 2 min 765 W/m² 19,3 km/h (3 Bft) 100,00 %
24.04.2026 15:28 19,4 °C 26,1 °C 15,6 °C 50 % 1023,2 hPa 0,0 l/m² 2 min 754 W/m² 9,7 km/h (2 Bft) 100,00 %
24.04.2026 15:30 19,4 °C 26,1 °C 16,1 °C 51 % 1023,3 hPa 0,0 l/m² 2 min 741 W/m² 22,5 km/h (4 Bft) 100,00 %
24.04.2026 15:32 19,5 °C 27,2 °C 16,1 °C 51 % 1023,2 hPa 0,0 l/m² 2 min 746 W/m² 12,9 km/h (3 Bft) 97,87 %
24.04.2026 15:34 19,6 °C 26,7 °C 16,1 °C 49 % 1023,2 hPa 0,0 l/m² 2 min 740 W/m² 22,5 km/h (4 Bft) 100,00 %
24.04.2026 15:36 19,6 °C 26,1 °C 16,1 °C 48 % 1023,2 hPa 0,0 l/m² 2 min 738 W/m² 22,5 km/h (4 Bft) 97,14 %
24.04.2026 15:38 19,6 °C 25,6 °C 16,1 °C 49 % 1023,2 hPa 0,0 l/m² 2 min 737 W/m² 12,9 km/h (3 Bft) 100,00 %
24.04.2026 15:40 19,5 °C 25,6 °C 16,1 °C 49 % 1023,1 hPa 0,0 l/m² 2 min 734 W/m² 16,1 km/h (3 Bft) 97,87 %
24.04.2026 15:42 19,4 °C 25,6 °C 16,1 °C 49 % 1023,2 hPa 0,0 l/m² 2 min 731 W/m² 16,1 km/h (3 Bft) 97,87 %
24.04.2026 15:44 19,6 °C 26,7 °C 16,1 °C 49 % 1023,1 hPa 0,0 l/m² 2 min 721 W/m² 19,3 km/h (3 Bft) 97,87 %
24.04.2026 15:46 19,5 °C 26,1 °C 16,1 °C 49 % 1023,1 hPa 0,0 l/m² 2 min 717 W/m² 9,7 km/h (2 Bft) 97,96 %
24.04.2026 15:48 19,6 °C 26,7 °C 16,1 °C 50 % 1023,1 hPa 0,0 l/m² 2 min 724 W/m² 12,9 km/h (3 Bft) 97,87 %
24.04.2026 15:50 19,7 °C 27,2 °C 16,7 °C 49 % 1023,0 hPa 0,0 l/m² 2 min 722 W/m² 16,1 km/h (3 Bft) 97,87 %
24.04.2026 15:52 19,8 °C 27,2 °C 16,7 °C 49 % 1023,0 hPa 0,0 l/m² 2 min 716 W/m² 16,1 km/h (3 Bft) 97,62 %
24.04.2026 15:54 19,9 °C 27,2 °C 16,7 °C 48 % 1023,0 hPa 0,0 l/m² 2 min 720 W/m² 12,9 km/h (3 Bft) 97,87 %
24.04.2026 15:56 20,0 °C 27,2 °C 16,7 °C 48 % 1023,0 hPa 0,0 l/m² 2 min 715 W/m² 12,9 km/h (3 Bft) 95,74 %
24.04.2026 15:58 20,1 °C 26,7 °C 16,7 °C 47 % 1023,0 hPa 0,0 l/m² 2 min 712 W/m² 22,5 km/h (4 Bft) 97,87 %
24.04.2026 16:00 20,1 °C 26,1 °C 16,7 °C 48 % 1022,9 hPa 0,0 l/m² 2 min 710 W/m² 16,1 km/h (3 Bft) 100,00 %
24.04.2026 16:02 20,1 °C 26,1 °C 16,7 °C 47 % 1022,9 hPa 0,0 l/m² 2 min 702 W/m² 12,9 km/h (3 Bft) 94,74 %
24.04.2026 16:04 20,1 °C 25,6 °C 16,1 °C 48 % 1022,7 hPa 0,0 l/m² 2 min 699 W/m² 12,9 km/h (3 Bft) 95,74 %
24.04.2026 16:06 19,8 °C 25,0 °C 16,1 °C 48 % 1022,8 hPa 0,0 l/m² 2 min 698 W/m² 9,7 km/h (2 Bft) 98,28 %
24.04.2026 16:08 19,8 °C 25,0 °C 16,1 °C 48 % 1022,8 hPa 0,0 l/m² 2 min 682 W/m² 16,1 km/h (3 Bft) 97,14 %
24.04.2026 16:10 19,8 °C 25,0 °C 16,1 °C 48 % 1022,8 hPa 0,0 l/m² 2 min 688 W/m² 16,1 km/h (3 Bft) 97,87 %
24.04.2026 16:12 19,8 °C 25,0 °C 16,1 °C 47 % 1022,8 hPa 0,0 l/m² 2 min 666 W/m² 12,9 km/h (3 Bft) 97,87 %
24.04.2026 16:14 19,7 °C 25,0 °C 16,1 °C 47 % 1022,8 hPa 0,0 l/m² 2 min 685 W/m² 25,7 km/h (4 Bft) 96,00 %
24.04.2026 16:16 19,8 °C 25,6 °C 16,7 °C 48 % 1022,8 hPa 0,0 l/m² 2 min 682 W/m² 16,1 km/h (3 Bft) 100,00 %
24.04.2026 16:18 19,9 °C 26,1 °C 16,7 °C 47 % 1022,8 hPa 0,0 l/m² 2 min 671 W/m² 19,3 km/h (3 Bft) 98,00 %
24.04.2026 16:20 20,0 °C 25,6 °C 16,7 °C 47 % 1022,8 hPa 0,0 l/m² 2 min 664 W/m² 19,3 km/h (3 Bft) 100,00 %
24.04.2026 16:22 20,1 °C 25,6 °C 16,7 °C 47 % 1022,7 hPa 0,0 l/m² 2 min 660 W/m² 12,9 km/h (3 Bft) 100,00 %
24.04.2026 16:24 20,2 °C 26,1 °C 17,2 °C 46 % 1022,6 hPa 0,0 l/m² 2 min 651 W/m² 22,5 km/h (4 Bft) 100,00 %
24.04.2026 16:26 20,1 °C 25,0 °C 16,7 °C 46 % 1022,6 hPa 0,0 l/m² 2 min 643 W/m² 16,1 km/h (3 Bft) 98,00 %
24.04.2026 16:28 20,2 °C 25,6 °C 16,7 °C 47 % 1022,6 hPa 0,0 l/m² 2 min 644 W/m² 22,5 km/h (4 Bft) 98,00 %
24.04.2026 16:30 20,2 °C 26,1 °C 17,2 °C 46 % 1022,6 hPa 0,0 l/m² 2 min 644 W/m² 19,3 km/h (3 Bft) 100,00 %
24.04.2026 16:32 20,2 °C 25,0 °C 16,7 °C 44 % 1022,5 hPa 0,0 l/m² 2 min 641 W/m² 16,1 km/h (3 Bft) 100,00 %
24.04.2026 16:34 20,2 °C 25,0 °C 16,7 °C 46 % 1022,5 hPa 0,0 l/m² 2 min 632 W/m² 16,1 km/h (3 Bft) 100,00 %
24.04.2026 16:36 20,3 °C 25,6 °C 16,7 °C 46 % 1022,5 hPa 0,0 l/m² 2 min 626 W/m² 19,3 km/h (3 Bft) 100,00 %
24.04.2026 16:38 20,3 °C 25,6 °C 16,7 °C 46 % 1022,5 hPa 0,0 l/m² 2 min 625 W/m² 16,1 km/h (3 Bft) 100,00 %
24.04.2026 16:40 20,3 °C 26,1 °C 16,7 °C 46 % 1022,5 hPa 0,0 l/m² 2 min 621 W/m² 12,9 km/h (3 Bft) 100,00 %
24.04.2026 16:42 20,3 °C 25,0 °C 16,1 °C 46 % 1022,5 hPa 0,0 l/m² 2 min 617 W/m² 6,4 km/h (2 Bft) 100,00 %
24.04.2026 16:44 20,4 °C 26,1 °C 16,7 °C 46 % 1022,4 hPa 0,0 l/m² 2 min 610 W/m² 12,9 km/h (3 Bft) 97,87 %
24.04.2026 16:46 20,4 °C 26,1 °C 16,7 °C 45 % 1022,4 hPa 0,0 l/m² 2 min 610 W/m² 12,9 km/h (3 Bft) 100,00 %
24.04.2026 16:48 20,6 °C 26,1 °C 17,2 °C 45 % 1022,3 hPa 0,0 l/m² 2 min 607 W/m² 9,7 km/h (2 Bft) 100,00 %
24.04.2026 16:50 20,7 °C 26,7 °C 17,2 °C 45 % 1022,3 hPa 0,0 l/m² 2 min 601 W/m² 19,3 km/h (3 Bft) 100,00 %
24.04.2026 16:52 20,8 °C 26,7 °C 17,8 °C 45 % 1022,3 hPa 0,0 l/m² 2 min 595 W/m² 19,3 km/h (3 Bft) 100,00 %
24.04.2026 16:54 20,9 °C 27,2 °C 17,8 °C 46 % 1022,2 hPa 0,0 l/m² 2 min 588 W/m² 9,7 km/h (2 Bft) 96,00 %
24.04.2026 16:56 20,9 °C 25,6 °C 17,2 °C 42 % 1022,2 hPa 0,0 l/m² 2 min 585 W/m² 29,0 km/h (5 Bft) 97,83 %
24.04.2026 16:58 20,8 °C 26,1 °C 17,8 °C 42 % 1022,2 hPa 0,0 l/m² 2 min 582 W/m² 16,1 km/h (3 Bft) 98,11 %
24.04.2026 17:00 20,7 °C 25,6 °C 17,2 °C 41 % 1022,2 hPa 0,0 l/m² 2 min 578 W/m² 9,7 km/h (2 Bft) 97,37 %
24.04.2026 17:02 20,7 °C 25,6 °C 17,2 °C 42 % 1022,2 hPa 0,0 l/m² 2 min 569 W/m² 9,7 km/h (2 Bft) 97,87 %
24.04.2026 17:04 20,4 °C 24,4 °C 16,7 °C 42 % 1022,1 hPa 0,0 l/m² 2 min 563 W/m² 16,1 km/h (3 Bft) 98,00 %
24.04.2026 17:06 20,3 °C 25,6 °C 17,2 °C 44 % 1022,1 hPa 0,0 l/m² 2 min 557 W/m² 9,7 km/h (2 Bft) 93,62 %
24.04.2026 17:08 20,4 °C 26,1 °C 17,2 °C 45 % 1022,0 hPa 0,0 l/m² 2 min 550 W/m² 9,7 km/h (2 Bft) 97,87 %
24.04.2026 17:10 20,5 °C 26,1 °C 17,2 °C 44 % 1022,0 hPa 0,0 l/m² 2 min 549 W/m² 22,5 km/h (4 Bft) 91,49 %
24.04.2026 17:12 20,6 °C 26,7 °C 17,8 °C 44 % 1022,0 hPa 0,0 l/m² 2 min 545 W/m² 19,3 km/h (3 Bft) 93,48 %
24.04.2026 17:14 20,7 °C 26,7 °C 17,8 °C 44 % 1022,0 hPa 0,0 l/m² 2 min 536 W/m² 16,1 km/h (3 Bft) 97,87 %
24.04.2026 17:16 20,8 °C 26,1 °C 17,8 °C 44 % 1022,0 hPa 0,0 l/m² 2 min 531 W/m² 19,3 km/h (3 Bft) 98,00 %
24.04.2026 17:18 20,8 °C 26,7 °C 17,8 °C 44 % 1022,0 hPa 0,0 l/m² 2 min 525 W/m² 16,1 km/h (3 Bft) 97,37 %
24.04.2026 17:20 20,8 °C 26,1 °C 17,2 °C 44 % 1022,0 hPa 0,0 l/m² 2 min 520 W/m² 12,9 km/h (3 Bft) 98,00 %
24.04.2026 17:22 20,8 °C 26,1 °C 17,2 °C 44 % 1022,0 hPa 0,0 l/m² 2 min 511 W/m² 12,9 km/h (3 Bft) 92,00 %
24.04.2026 17:24 20,8 °C 25,6 °C 17,2 °C 45 % 1022,0 hPa 0,0 l/m² 2 min 507 W/m² 6,4 km/h (2 Bft) 97,87 %
24.04.2026 17:26 20,7 °C 26,1 °C 17,2 °C 44 % 1022,0 hPa 0,0 l/m² 2 min 506 W/m² 19,3 km/h (3 Bft) 97,87 %
24.04.2026 17:28 20,7 °C 26,1 °C 17,2 °C 44 % 1021,9 hPa 0,0 l/m² 2 min 499 W/m² 16,1 km/h (3 Bft) 96,00 %
24.04.2026 17:30 20,7 °C 25,0 °C 17,2 °C 44 % 1021,9 hPa 0,0 l/m² 2 min 492 W/m² 12,9 km/h (3 Bft) 95,92 %
24.04.2026 17:32 20,6 °C 25,6 °C 17,2 °C 44 % 1021,9 hPa 0,0 l/m² 2 min 485 W/m² 19,3 km/h (3 Bft) 97,87 %
24.04.2026 17:34 20,6 °C 26,1 °C 17,2 °C 45 % 1021,9 hPa 0,0 l/m² 2 min 483 W/m² 19,3 km/h (3 Bft) 97,14 %
24.04.2026 17:36 20,7 °C 26,1 °C 17,2 °C 44 % 1021,9 hPa 0,0 l/m² 2 min 477 W/m² 22,5 km/h (4 Bft) 98,31 %
24.04.2026 17:38 20,6 °C 25,6 °C 17,2 °C 44 % 1021,9 hPa 0,0 l/m² 2 min 470 W/m² 16,1 km/h (3 Bft) 100,00 %
24.04.2026 17:40 20,7 °C 26,1 °C 17,2 °C 47 % 1021,9 hPa 0,0 l/m² 2 min 464 W/m² 12,9 km/h (3 Bft) 94,29 %
24.04.2026 17:42 20,8 °C 26,1 °C 17,8 °C 46 % 1021,9 hPa 0,0 l/m² 2 min 463 W/m² 19,3 km/h (3 Bft) 100,00 %
24.04.2026 17:44 20,7 °C 25,6 °C 17,2 °C 44 % 1021,9 hPa 0,0 l/m² 2 min 456 W/m² 12,9 km/h (3 Bft) 94,74 %
24.04.2026 17:46 20,7 °C 25,6 °C 17,2 °C 45 % 1021,9 hPa 0,0 l/m² 2 min 448 W/m² 9,7 km/h (2 Bft) 100,00 %
24.04.2026 17:48 20,7 °C 26,1 °C 17,2 °C 46 % 1021,9 hPa 0,0 l/m² 2 min 443 W/m² 25,7 km/h (4 Bft) 100,00 %
24.04.2026 17:50 20,7 °C 26,7 °C 17,2 °C 46 % 1021,9 hPa 0,0 l/m² 2 min 436 W/m² 12,9 km/h (3 Bft) 97,87 %
24.04.2026 17:52 20,7 °C 26,7 °C 17,2 °C 47 % 1021,8 hPa 0,0 l/m² 2 min 429 W/m² 16,1 km/h (3 Bft) 95,65 %
24.04.2026 17:54 20,6 °C 26,7 °C 17,2 °C 47 % 1021,8 hPa 0,0 l/m² 2 min 426 W/m² 12,9 km/h (3 Bft) 93,62 %
24.04.2026 17:56 20,5 °C 26,1 °C 17,2 °C 45 % 1021,8 hPa 0,0 l/m² 2 min 419 W/m² 16,1 km/h (3 Bft) 94,00 %
24.04.2026 17:58 20,5 °C 26,1 °C 17,2 °C 45 % 1021,8 hPa 0,0 l/m² 2 min 411 W/m² 12,9 km/h (3 Bft) 95,74 %
24.04.2026 18:00 20,5 °C 25,6 °C 17,2 °C 45 % 1021,8 hPa 0,0 l/m² 2 min 406 W/m² 19,3 km/h (3 Bft) 93,62 %
24.04.2026 18:02 20,5 °C 25,6 °C 17,2 °C 46 % 1021,7 hPa 0,0 l/m² 2 min 402 W/m² 12,9 km/h (3 Bft) 95,74 %
24.04.2026 18:04 20,5 °C 25,6 °C 17,2 °C 47 % 1021,8 hPa 0,0 l/m² 2 min 395 W/m² 22,5 km/h (4 Bft) 95,74 %
24.04.2026 18:06 20,5 °C 25,6 °C 17,2 °C 45 % 1021,7 hPa 0,0 l/m² 2 min 389 W/m² 25,7 km/h (4 Bft) 95,74 %
24.04.2026 18:08 20,6 °C 25,6 °C 17,2 °C 45 % 1021,7 hPa 0,0 l/m² 2 min 384 W/m² 9,7 km/h (2 Bft) 95,92 %
24.04.2026 18:10 20,6 °C 26,1 °C 17,2 °C 46 % 1021,6 hPa 0,0 l/m² 2 min 376 W/m² 12,9 km/h (3 Bft) 96,00 %
24.04.2026 18:12 20,6 °C 26,1 °C 17,2 °C 45 % 1021,6 hPa 0,0 l/m² 2 min 371 W/m² 16,1 km/h (3 Bft) 95,74 %
24.04.2026 18:14 20,5 °C 25,0 °C 17,2 °C 45 % 1021,6 hPa 0,0 l/m² 2 min 364 W/m² 12,9 km/h (3 Bft) 95,74 %
24.04.2026 18:16 20,5 °C 25,6 °C 17,2 °C 46 % 1021,7 hPa 0,0 l/m² 2 min 361 W/m² 16,1 km/h (3 Bft) 95,74 %
24.04.2026 18:18 20,5 °C 26,1 °C 17,2 °C 44 % 1021,6 hPa 0,0 l/m² 2 min 353 W/m² 19,3 km/h (3 Bft) 95,74 %
24.04.2026 18:20 20,5 °C 25,6 °C 17,2 °C 44 % 1021,6 hPa 0,0 l/m² 2 min 346 W/m² 9,7 km/h (2 Bft) 95,74 %
24.04.2026 18:22 20,4 °C 25,6 °C 16,7 °C 44 % 1021,6 hPa 0,0 l/m² 2 min 339 W/m² 12,9 km/h (3 Bft) 95,65 %
24.04.2026 18:24 20,3 °C 24,4 °C 16,7 °C 44 % 1021,6 hPa 0,0 l/m² 2 min 332 W/m² 12,9 km/h (3 Bft) 95,74 %
24.04.2026 18:26 20,3 °C 25,0 °C 16,7 °C 45 % 1021,6 hPa 0,0 l/m² 2 min 331 W/m² 6,4 km/h (2 Bft) 93,62 %
24.04.2026 18:28 20,3 °C 25,6 °C 16,7 °C 43 % 1021,6 hPa 0,0 l/m² 2 min 325 W/m² 12,9 km/h (3 Bft) 95,74 %
24.04.2026 18:30 20,3 °C 25,6 °C 16,7 °C 43 % 1021,6 hPa 0,0 l/m² 2 min 308 W/m² 12,9 km/h (3 Bft) 100,00 %
24.04.2026 18:32 20,2 °C 25,0 °C 16,1 °C 45 % 1021,6 hPa 0,0 l/m² 2 min 295 W/m² 16,1 km/h (3 Bft) 96,00 %
24.04.2026 18:34 20,2 °C 24,4 °C 16,1 °C 45 % 1021,5 hPa 0,0 l/m² 2 min 297 W/m² 19,3 km/h (3 Bft) 98,00 %
24.04.2026 18:36 20,1 °C 24,4 °C 16,1 °C 45 % 1021,5 hPa 0,0 l/m² 2 min 293 W/m² 16,1 km/h (3 Bft) 97,87 %
24.04.2026 18:38 20,0 °C 22,8 °C 15,6 °C 45 % 1021,5 hPa 0,0 l/m² 2 min 282 W/m² 3,2 km/h (1 Bft) 95,65 %
24.04.2026 18:40 19,9 °C 21,7 °C 15,6 °C 46 % 1021,4 hPa 0,0 l/m² 2 min 281 W/m² 16,1 km/h (3 Bft) 97,87 %
24.04.2026 18:42 19,9 °C 20,6 °C 15,6 °C 46 % 1021,4 hPa 0,0 l/m² 2 min 270 W/m² 16,1 km/h (3 Bft) 97,56 %
24.04.2026 18:44 19,8 °C 20,0 °C 15,0 °C 46 % 1021,4 hPa 0,0 l/m² 2 min 262 W/m² 16,1 km/h (3 Bft) 97,87 %
24.04.2026 18:46 19,8 °C 19,4 °C 15,0 °C 46 % 1021,4 hPa 0,0 l/m² 2 min 259 W/m² 9,7 km/h (2 Bft) 97,87 %
24.04.2026 18:48 19,8 °C 18,9 °C 15,0 °C 46 % 1021,4 hPa 0,0 l/m² 2 min 247 W/m² 9,7 km/h (2 Bft) 98,00 %
24.04.2026 18:50 19,7 °C 18,9 °C 15,0 °C 46 % 1021,4 hPa 0,0 l/m² 2 min 238 W/m² 12,9 km/h (3 Bft) 100,00 %
24.04.2026 18:52 19,6 °C 18,9 °C 15,0 °C 46 % 1021,4 hPa 0,0 l/m² 2 min 226 W/m² 16,1 km/h (3 Bft) 100,00 %
24.04.2026 18:54 19,6 °C 18,9 °C 15,0 °C 46 % 1021,3 hPa 0,0 l/m² 2 min 198 W/m² 19,3 km/h (3 Bft) 100,00 %
24.04.2026 18:56 19,5 °C 18,9 °C 15,0 °C 46 % 1021,3 hPa 0,0 l/m² 0 min 122 W/m² 9,7 km/h (2 Bft) 98,18 %
24.04.2026 18:58 19,4 °C 18,3 °C 14,4 °C 47 % 1021,3 hPa 0,0 l/m² 0 min 60 W/m² 19,3 km/h (3 Bft) 100,00 %
24.04.2026 19:00 19,3 °C 18,3 °C 14,4 °C 47 % 1021,3 hPa 0,0 l/m² 0 min 50 W/m² 12,9 km/h (3 Bft) 100,00 %
24.04.2026 19:02 19,2 °C 18,3 °C 14,4 °C 48 % 1021,3 hPa 0,0 l/m² 0 min 48 W/m² 6,4 km/h (2 Bft) 100,00 %
24.04.2026 19:04 19,1 °C 18,3 °C 14,4 °C 47 % 1021,3 hPa 0,0 l/m² 0 min 46 W/m² 6,4 km/h (2 Bft) 100,00 %
24.04.2026 19:06 18,9 °C 17,8 °C 13,9 °C 47 % 1021,2 hPa 0,0 l/m² 0 min 44 W/m² 6,4 km/h (2 Bft) 100,00 %
24.04.2026 19:08 18,8 °C 17,8 °C 13,9 °C 47 % 1021,2 hPa 0,0 l/m² 0 min 44 W/m² 9,7 km/h (2 Bft) 100,00 %
24.04.2026 19:10 18,7 °C 17,8 °C 13,9 °C 46 % 1021,3 hPa 0,0 l/m² 0 min 42 W/m² 12,9 km/h (3 Bft) 100,00 %
24.04.2026 19:12 18,6 °C 17,8 °C 13,9 °C 47 % 1021,2 hPa 0,0 l/m² 0 min 42 W/m² 6,4 km/h (2 Bft) 100,00 %
24.04.2026 19:14 18,5 °C 17,8 °C 13,3 °C 47 % 1021,2 hPa 0,0 l/m² 0 min 42 W/m² 6,4 km/h (2 Bft) 100,00 %
24.04.2026 19:16 18,4 °C 17,8 °C 13,3 °C 48 % 1021,2 hPa 0,0 l/m² 0 min 44 W/m² 12,9 km/h (3 Bft) 100,00 %
24.04.2026 19:18 18,3 °C 17,8 °C 13,3 °C 47 % 1021,2 hPa 0,0 l/m² 0 min 44 W/m² 19,3 km/h (3 Bft) 97,87 %
24.04.2026 19:20 18,3 °C 17,8 °C 13,9 °C 47 % 1021,2 hPa 0,0 l/m² 0 min 43 W/m² 12,9 km/h (3 Bft) 100,00 %
24.04.2026 19:22 18,2 °C 17,8 °C 13,9 °C 47 % 1021,1 hPa 0,0 l/m² 0 min 42 W/m² 6,4 km/h (2 Bft) 100,00 %
24.04.2026 19:24 18,2 °C 17,2 °C 13,3 °C 48 % 1021,2 hPa 0,0 l/m² 0 min 42 W/m² 3,2 km/h (1 Bft) 100,00 %
24.04.2026 19:26 18,2 °C 17,2 °C 13,3 °C 48 % 1021,1 hPa 0,0 l/m² 0 min 40 W/m² 3,2 km/h (1 Bft) 100,00 %
24.04.2026 19:28 18,1 °C 17,2 °C 13,3 °C 49 % 1021,2 hPa 0,0 l/m² 0 min 40 W/m² 6,4 km/h (2 Bft) 97,87 %
24.04.2026 19:30 18,1 °C 17,2 °C 13,3 °C 49 % 1021,1 hPa 0,0 l/m² 0 min 40 W/m² 3,2 km/h (1 Bft) 96,15 %
24.04.2026 19:32 18,0 °C 17,2 °C 13,3 °C 48 % 1021,1 hPa 0,0 l/m² 0 min 39 W/m² 12,9 km/h (3 Bft) 97,92 %
24.04.2026 19:34 17,9 °C 17,2 °C 13,3 °C 50 % 1021,1 hPa 0,0 l/m² 0 min 39 W/m² 12,9 km/h (3 Bft) 94,00 %
24.04.2026 19:36 17,9 °C 17,2 °C 13,3 °C 49 % 1021,1 hPa 0,0 l/m² 0 min 39 W/m² 9,7 km/h (2 Bft) 97,14 %
24.04.2026 19:38 17,8 °C 17,2 °C 13,3 °C 49 % 1021,1 hPa 0,0 l/m² 0 min 37 W/m² 12,9 km/h (3 Bft) 95,74 %
24.04.2026 19:40 17,8 °C 16,7 °C 12,8 °C 49 % 1021,1 hPa 0,0 l/m² 0 min 36 W/m² 9,7 km/h (2 Bft) 98,18 %
24.04.2026 19:42 17,7 °C 16,7 °C 12,8 °C 50 % 1021,1 hPa 0,0 l/m² 0 min 35 W/m² 12,9 km/h (3 Bft) 98,00 %
24.04.2026 19:44 17,7 °C 16,7 °C 12,8 °C 50 % 1021,1 hPa 0,0 l/m² 0 min 34 W/m² 6,4 km/h (2 Bft) 95,65 %
24.04.2026 19:46 17,6 °C 16,7 °C 12,8 °C 50 % 1021,1 hPa 0,0 l/m² 0 min 33 W/m² 3,2 km/h (1 Bft) 97,87 %
24.04.2026 19:48 17,6 °C 16,7 °C 12,8 °C 51 % 1021,1 hPa 0,0 l/m² 0 min 33 W/m² 6,4 km/h (2 Bft) 93,62 %
24.04.2026 19:50 17,5 °C 16,7 °C 12,8 °C 51 % 1021,1 hPa 0,0 l/m² 0 min 32 W/m² 6,4 km/h (2 Bft) 97,87 %
24.04.2026 19:52 17,4 °C 16,1 °C 12,8 °C 51 % 1021,1 hPa 0,0 l/m² 0 min 30 W/m² 16,1 km/h (3 Bft) 97,87 %
24.04.2026 19:54 17,4 °C 16,1 °C 12,2 °C 51 % 1021,2 hPa 0,0 l/m² 0 min 29 W/m² 6,4 km/h (2 Bft) 97,87 %
24.04.2026 19:56 17,3 °C 16,1 °C 12,2 °C 52 % 1021,1 hPa 0,0 l/m² 0 min 28 W/m² 6,4 km/h (2 Bft) 97,87 %
24.04.2026 19:58 17,2 °C 16,1 °C 12,2 °C 52 % 1021,1 hPa 0,0 l/m² 0 min 27 W/m² 9,7 km/h (2 Bft) 93,62 %
24.04.2026 20:00 17,1 °C 16,1 °C 12,2 °C 53 % 1021,1 hPa 0,0 l/m² 0 min 26 W/m² 6,4 km/h (2 Bft) 95,65 %
24.04.2026 20:02 17,1 °C 16,1 °C 12,2 °C 53 % 1021,1 hPa 0,0 l/m² 0 min 26 W/m² 9,7 km/h (2 Bft) 95,12 %
24.04.2026 20:04 17,0 °C 16,1 °C 12,2 °C 53 % 1021,2 hPa 0,0 l/m² 0 min 25 W/m² 6,4 km/h (2 Bft) 95,74 %
24.04.2026 20:06 16,9 °C 15,6 °C 11,7 °C 54 % 1021,1 hPa 0,0 l/m² 0 min 23 W/m² 6,4 km/h (2 Bft) 94,00 %
24.04.2026 20:08 16,9 °C 15,6 °C 11,7 °C 54 % 1021,1 hPa 0,0 l/m² 0 min 23 W/m² 6,4 km/h (2 Bft) 96,00 %
24.04.2026 20:10 16,8 °C 15,6 °C 11,7 °C 54 % 1021,2 hPa 0,0 l/m² 0 min 21 W/m² 3,2 km/h (1 Bft) 97,14 %
24.04.2026 20:12 16,7 °C 15,6 °C 11,7 °C 54 % 1021,2 hPa 0,0 l/m² 0 min 21 W/m² 6,4 km/h (2 Bft) 90,00 %
24.04.2026 20:14 16,7 °C 15,6 °C 11,7 °C 54 % 1021,2 hPa 0,0 l/m² 0 min 20 W/m² 3,2 km/h (1 Bft) 94,00 %
24.04.2026 20:16 16,6 °C 15,6 °C 11,7 °C 54 % 1021,2 hPa 0,0 l/m² 0 min 19 W/m² 9,7 km/h (2 Bft) 94,00 %
24.04.2026 20:18 16,6 °C 15,6 °C 11,7 °C 55 % 1021,2 hPa 0,0 l/m² 0 min 18 W/m² 12,9 km/h (3 Bft) 97,83 %
24.04.2026 20:20 16,5 °C 15,0 °C 11,7 °C 54 % 1021,2 hPa 0,0 l/m² 0 min 18 W/m² 9,7 km/h (2 Bft) 97,44 %
24.04.2026 20:22 16,4 °C 15,0 °C 11,7 °C 54 % 1021,2 hPa 0,0 l/m² 0 min 16 W/m² 3,2 km/h (1 Bft) 97,83 %
24.04.2026 20:24 16,3 °C 15,0 °C 11,1 °C 55 % 1021,3 hPa 0,0 l/m² 0 min 16 W/m² 6,4 km/h (2 Bft) 95,74 %
24.04.2026 20:26 16,2 °C 15,0 °C 11,1 °C 55 % 1021,3 hPa 0,0 l/m² 0 min 14 W/m² 6,4 km/h (2 Bft) 96,00 %
24.04.2026 20:28 16,2 °C 15,0 °C 11,1 °C 55 % 1021,3 hPa 0,0 l/m² 0 min 13 W/m² 6,4 km/h (2 Bft) 100,00 %
24.04.2026 20:30 16,1 °C 14,4 °C 11,1 °C 56 % 1021,3 hPa 0,0 l/m² 0 min 12 W/m² 12,9 km/h (3 Bft) 95,74 %
24.04.2026 20:32 16,1 °C 14,4 °C 11,1 °C 56 % 1021,3 hPa 0,0 l/m² 0 min 11 W/m² 9,7 km/h (2 Bft) 97,87 %
24.04.2026 20:34 15,9 °C 14,4 °C 11,1 °C 56 % 1021,3 hPa 0,0 l/m² 0 min 11 W/m² 12,9 km/h (3 Bft) 98,00 %
24.04.2026 20:36 15,9 °C 14,4 °C 11,1 °C 55 % 1021,3 hPa 0,0 l/m² 0 min 9 W/m² 6,4 km/h (2 Bft) 97,87 %
24.04.2026 20:38 15,8 °C 14,4 °C 11,1 °C 56 % 1021,3 hPa 0,0 l/m² 0 min 9 W/m² 6,4 km/h (2 Bft) 97,83 %
24.04.2026 20:40 15,8 °C 14,4 °C 10,6 °C 56 % 1021,3 hPa 0,0 l/m² 0 min 7 W/m² 3,2 km/h (1 Bft) 97,87 %
24.04.2026 20:42 15,7 °C 14,4 °C 10,6 °C 56 % 1021,3 hPa 0,0 l/m² 0 min 7 W/m² 9,7 km/h (2 Bft) 97,62 %
24.04.2026 20:44 15,7 °C 14,4 °C 10,6 °C 56 % 1021,3 hPa 0,0 l/m² 0 min 5 W/m² 9,7 km/h (2 Bft) 95,74 %
24.04.2026 20:46 15,6 °C 14,4 °C 10,6 °C 55 % 1021,4 hPa 0,0 l/m² 0 min 5 W/m² 12,9 km/h (3 Bft) 96,00 %
24.04.2026 20:48 15,6 °C 14,4 °C 10,6 °C 55 % 1021,4 hPa 0,0 l/m² 0 min 3 W/m² 6,4 km/h (2 Bft) 97,87 %
24.04.2026 20:50 15,5 °C 13,9 °C 10,6 °C 56 % 1021,4 hPa 0,0 l/m² 0 min 0 W/m² 9,7 km/h (2 Bft) 98,11 %
24.04.2026 20:52 15,4 °C 13,9 °C 10,6 °C 56 % 1021,4 hPa 0,0 l/m² 0 min 0 W/m² 9,7 km/h (2 Bft) 95,74 %
24.04.2026 20:54 15,4 °C 13,9 °C 10,6 °C 56 % 1021,4 hPa 0,0 l/m² 0 min 0 W/m² 6,4 km/h (2 Bft) 97,83 %
24.04.2026 20:56 15,3 °C 13,9 °C 10,6 °C 57 % 1021,4 hPa 0,0 l/m² 0 min 0 W/m² 6,4 km/h (2 Bft) 97,87 %
24.04.2026 20:58 15,2 °C 13,9 °C 10,6 °C 56 % 1021,4 hPa 0,0 l/m² 0 min 0 W/m² 3,2 km/h (1 Bft) 97,87 %
24.04.2026 21:00 15,2 °C 13,3 °C 10,0 °C 57 % 1021,4 hPa 0,0 l/m² 0 min 0 W/m² 3,2 km/h (1 Bft) 93,62 %
24.04.2026 21:02 15,2 °C 13,3 °C 10,0 °C 57 % 1021,4 hPa 0,0 l/m² 0 min 0 W/m² 3,2 km/h (1 Bft) 97,87 %
24.04.2026 21:04 15,1 °C 13,3 °C 10,0 °C 57 % 1021,4 hPa 0,0 l/m² 0 min 0 W/m² 3,2 km/h (1 Bft) 100,00 %
24.04.2026 21:06 15,0 °C 13,3 °C 10,0 °C 57 % 1021,4 hPa 0,0 l/m² 0 min 0 W/m² 3,2 km/h (1 Bft) 100,00 %
24.04.2026 21:08 15,0 °C 13,3 °C 10,0 °C 58 % 1021,4 hPa 0,0 l/m² 0 min 0 W/m² 3,2 km/h (1 Bft) 100,00 %
24.04.2026 21:10 14,9 °C 12,8 °C 9,4 °C 58 % 1021,4 hPa 0,0 l/m² 0 min 0 W/m² 9,7 km/h (2 Bft) 100,00 %
24.04.2026 21:12 14,8 °C 12,8 °C 9,4 °C 58 % 1021,4 hPa 0,0 l/m² 0 min 0 W/m² 6,4 km/h (2 Bft) 100,00 %
24.04.2026 21:14 14,8 °C 12,8 °C 9,4 °C 58 % 1021,4 hPa 0,0 l/m² 0 min 0 W/m² 3,2 km/h (1 Bft) 100,00 %
24.04.2026 21:16 14,7 °C 12,8 °C 9,4 °C 59 % 1021,4 hPa 0,0 l/m² 0 min 0 W/m² 9,7 km/h (2 Bft) 97,87 %
24.04.2026 21:18 14,6 °C 12,8 °C 9,4 °C 59 % 1021,4 hPa 0,0 l/m² 0 min 0 W/m² 6,4 km/h (2 Bft) 100,00 %
24.04.2026 21:20 14,6 °C 12,8 °C 9,4 °C 59 % 1021,4 hPa 0,0 l/m² 0 min 0 W/m² 3,2 km/h (1 Bft) 100,00 %
24.04.2026 21:22 14,6 °C 12,8 °C 9,4 °C 59 % 1021,4 hPa 0,0 l/m² 0 min 0 W/m² 3,2 km/h (1 Bft) 97,87 %
24.04.2026 21:24 14,5 °C 12,8 °C 9,4 °C 59 % 1021,4 hPa 0,0 l/m² 0 min 0 W/m² 6,4 km/h (2 Bft) 98,25 %
24.04.2026 21:26 14,4 °C 12,8 °C 9,4 °C 60 % 1021,4 hPa 0,0 l/m² 0 min 0 W/m² 3,2 km/h (1 Bft) 100,00 %
24.04.2026 21:28 14,4 °C 12,2 °C 9,4 °C 60 % 1021,4 hPa 0,0 l/m² 0 min 0 W/m² 3,2 km/h (1 Bft) 100,00 %
24.04.2026 21:30 14,3 °C 12,2 °C 8,9 °C 60 % 1021,4 hPa 0,0 l/m² 0 min 0 W/m² 3,2 km/h (1 Bft) 98,08 %
24.04.2026 21:32 14,3 °C 12,2 °C 8,9 °C 60 % 1021,4 hPa 0,0 l/m² 0 min 0 W/m² 0,0 km/h (0 Bft) 100,00 %
24.04.2026 21:34 14,3 °C 12,2 °C 8,9 °C 61 % 1021,4 hPa 0,0 l/m² 0 min 0 W/m² 3,2 km/h (1 Bft) 100,00 %
24.04.2026 21:36 14,3 °C 12,2 °C 8,9 °C 61 % 1021,5 hPa 0,0 l/m² 0 min 0 W/m² 3,2 km/h (1 Bft) 97,87 %
24.04.2026 21:38 14,3 °C 12,2 °C 8,9 °C 61 % 1021,4 hPa 0,0 l/m² 0 min 0 W/m² 3,2 km/h (1 Bft) 100,00 %
24.04.2026 21:40 14,3 °C 11,7 °C 8,9 °C 61 % 1021,4 hPa 0,0 l/m² 0 min 0 W/m² 3,2 km/h (1 Bft) 100,00 %
24.04.2026 21:42 14,2 °C 11,7 °C 8,3 °C 61 % 1021,5 hPa 0,0 l/m² 0 min 0 W/m² 0,0 km/h (0 Bft) 93,62 %
24.04.2026 21:44 14,2 °C 11,7 °C 8,3 °C 62 % 1021,5 hPa 0,0 l/m² 0 min 0 W/m² 0,0 km/h (0 Bft) 97,37 %
24.04.2026 21:46 14,1 °C 11,7 °C 8,3 °C 63 % 1021,5 hPa 0,0 l/m² 0 min 0 W/m² 0,0 km/h (0 Bft) 98,11 %
24.04.2026 21:48 14,0 °C 11,7 °C 8,3 °C 63 % 1021,5 hPa 0,0 l/m² 0 min 0 W/m² 3,2 km/h (1 Bft) 97,87 %
24.04.2026 21:50 13,9 °C 11,7 °C 8,3 °C 63 % 1021,5 hPa 0,0 l/m² 0 min 0 W/m² 0,0 km/h (0 Bft) 97,87 %
24.04.2026 21:52 13,9 °C 11,7 °C 8,3 °C 63 % 1021,5 hPa 0,0 l/m² 0 min 0 W/m² 3,2 km/h (1 Bft) 97,96 %
24.04.2026 21:54 13,8 °C 11,7 °C 7,8 °C 63 % 1021,5 hPa 0,0 l/m² 0 min 0 W/m² 0,0 km/h (0 Bft) 96,00 %
24.04.2026 21:56 13,7 °C 11,7 °C 7,8 °C 64 % 1021,5 hPa 0,0 l/m² 0 min 0 W/m² 6,4 km/h (2 Bft) 97,37 %
24.04.2026 21:58 13,6 °C 11,7 °C 7,8 °C 64 % 1021,5 hPa 0,0 l/m² 0 min 0 W/m² 3,2 km/h (1 Bft) 95,74 %
24.04.2026 22:00 13,6 °C 11,7 °C 7,8 °C 64 % 1021,5 hPa 0,0 l/m² 0 min 0 W/m² 0,0 km/h (0 Bft) 95,74 %
24.04.2026 22:02 13,5 °C 11,7 °C 7,8 °C 64 % 1021,5 hPa 0,0 l/m² 0 min 0 W/m² 3,2 km/h (1 Bft) 97,87 %
24.04.2026 22:04 13,4 °C 11,1 °C 7,8 °C 64 % 1021,6 hPa 0,0 l/m² 0 min 0 W/m² 3,2 km/h (1 Bft) 95,74 %
24.04.2026 22:06 13,3 °C 11,7 °C 7,8 °C 65 % 1021,5 hPa 0,0 l/m² 0 min 0 W/m² 9,7 km/h (2 Bft) 96,55 %
24.04.2026 22:08 13,3 °C 11,7 °C 8,3 °C 65 % 1021,6 hPa 0,0 l/m² 0 min 0 W/m² 3,2 km/h (1 Bft) 97,22 %
24.04.2026 22:10 13,2 °C 11,7 °C 7,8 °C 66 % 1021,7 hPa 0,0 l/m² 0 min 0 W/m² 3,2 km/h (1 Bft) 100,00 %
24.04.2026 22:12 13,2 °C 11,1 °C 7,8 °C 66 % 1021,6 hPa 0,0 l/m² 0 min 0 W/m² 0,0 km/h (0 Bft) 97,87 %
24.04.2026 22:14 13,1 °C 11,1 °C 7,8 °C 66 % 1021,7 hPa 0,0 l/m² 0 min 0 W/m² 0,0 km/h (0 Bft) 100,00 %
24.04.2026 22:16 13,1 °C 11,1 °C 7,8 °C 66 % 1021,6 hPa 0,0 l/m² 0 min 0 W/m² 0,0 km/h (0 Bft) 93,62 %
24.04.2026 22:18 13,0 °C 11,1 °C 7,8 °C 66 % 1021,6 hPa 0,0 l/m² 0 min 0 W/m² 3,2 km/h (1 Bft) 100,00 %
24.04.2026 22:20 12,9 °C 11,1 °C 7,8 °C 66 % 1021,6 hPa 0,0 l/m² 0 min 0 W/m² 6,4 km/h (2 Bft) 100,00 %
24.04.2026 22:22 12,9 °C 11,1 °C 7,8 °C 67 % 1021,6 hPa 0,0 l/m² 0 min 0 W/m² 0,0 km/h (0 Bft) 100,00 %
24.04.2026 22:24 12,8 °C 11,1 °C 7,8 °C 67 % 1021,6 hPa 0,0 l/m² 0 min 0 W/m² 0,0 km/h (0 Bft) 100,00 %
24.04.2026 22:26 12,8 °C 11,1 °C 7,8 °C 67 % 1021,6 hPa 0,0 l/m² 0 min 0 W/m² 3,2 km/h (1 Bft) 97,96 %
24.04.2026 22:28 12,7 °C 11,1 °C 7,8 °C 68 % 1021,6 hPa 0,0 l/m² 0 min 0 W/m² 3,2 km/h (1 Bft) 95,74 %
24.04.2026 22:30 12,7 °C 10,6 °C 7,8 °C 68 % 1021,6 hPa 0,0 l/m² 0 min 0 W/m² 3,2 km/h (1 Bft) 97,87 %
24.04.2026 22:32 12,6 °C 10,6 °C 7,8 °C 68 % 1021,6 hPa 0,0 l/m² 0 min 0 W/m² 6,4 km/h (2 Bft) 97,37 %
24.04.2026 22:34 12,6 °C 10,6 °C 7,2 °C 68 % 1021,6 hPa 0,0 l/m² 0 min 0 W/m² 3,2 km/h (1 Bft) 97,87 %
24.04.2026 22:36 12,5 °C 10,6 °C 7,2 °C 68 % 1021,6 hPa 0,0 l/m² 0 min 0 W/m² 6,4 km/h (2 Bft) 98,31 %
24.04.2026 22:38 12,5 °C 10,6 °C 7,2 °C 68 % 1021,7 hPa 0,0 l/m² 0 min 0 W/m² 3,2 km/h (1 Bft) 97,14 %
24.04.2026 22:40 12,4 °C 10,6 °C 7,2 °C 69 % 1021,7 hPa 0,0 l/m² 0 min 0 W/m² 3,2 km/h (1 Bft) 98,00 %
24.04.2026 22:42 12,4 °C 10,6 °C 7,2 °C 69 % 1021,6 hPa 0,0 l/m² 0 min 0 W/m² 6,4 km/h (2 Bft) 98,08 %
24.04.2026 22:44 12,3 °C 10,6 °C 7,2 °C 69 % 1021,7 hPa 0,0 l/m² 0 min 0 W/m² 0,0 km/h (0 Bft) 95,74 %
24.04.2026 22:46 12,3 °C 10,6 °C 7,2 °C 69 % 1021,6 hPa 0,0 l/m² 0 min 0 W/m² 3,2 km/h (1 Bft) 95,74 %
24.04.2026 22:48 12,2 °C 10,6 °C 7,2 °C 69 % 1021,7 hPa 0,0 l/m² 0 min 0 W/m² 3,2 km/h (1 Bft) 95,74 %
24.04.2026 22:50 12,2 °C 10,6 °C 7,2 °C 70 % 1021,7 hPa 0,0 l/m² 0 min 0 W/m² 3,2 km/h (1 Bft) 95,74 %
24.04.2026 22:52 12,1 °C 10,6 °C 7,2 °C 70 % 1021,8 hPa 0,0 l/m² 0 min 0 W/m² 3,2 km/h (1 Bft) 93,62 %
24.04.2026 22:54 12,1 °C 10,0 °C 7,2 °C 70 % 1021,8 hPa 0,0 l/m² 0 min 0 W/m² 3,2 km/h (1 Bft) 93,62 %
24.04.2026 22:56 12,0 °C 10,0 °C 7,2 °C 70 % 1021,8 hPa 0,0 l/m² 0 min 0 W/m² 3,2 km/h (1 Bft) 92,11 %
24.04.2026 22:58 11,9 °C 10,0 °C 7,2 °C 71 % 1021,7 hPa 0,0 l/m² 0 min 0 W/m² 0,0 km/h (0 Bft) 95,74 %
24.04.2026 23:00 11,9 °C 10,0 °C 7,2 °C 71 % 1021,7 hPa 0,0 l/m² 0 min 0 W/m² 0,0 km/h (0 Bft) 93,62 %
24.04.2026 23:02 11,9 °C 10,0 °C 6,7 °C 71 % 1021,7 hPa 0,0 l/m² 0 min 0 W/m² 3,2 km/h (1 Bft) 97,83 %
24.04.2026 23:04 11,8 °C 10,0 °C 6,7 °C 71 % 1021,7 hPa 0,0 l/m² 0 min 0 W/m² 3,2 km/h (1 Bft) 97,87 %
24.04.2026 23:06 11,8 °C 10,0 °C 6,7 °C 72 % 1021,7 hPa 0,0 l/m² 0 min 0 W/m² 3,2 km/h (1 Bft) 98,31 %
24.04.2026 23:08 11,7 °C 10,0 °C 6,7 °C 72 % 1021,7 hPa 0,0 l/m² 0 min 0 W/m² 3,2 km/h (1 Bft) 97,14 %
24.04.2026 23:10 11,7 °C 10,0 °C 6,7 °C 72 % 1021,7 hPa 0,0 l/m² 0 min 0 W/m² 6,4 km/h (2 Bft) 97,87 %
24.04.2026 23:12 11,6 °C 10,0 °C 6,7 °C 73 % 1021,7 hPa 0,0 l/m² 0 min 0 W/m² 6,4 km/h (2 Bft) 98,18 %
24.04.2026 23:14 11,6 °C 10,0 °C 6,7 °C 73 % 1021,7 hPa 0,0 l/m² 0 min 0 W/m² 3,2 km/h (1 Bft) 91,49 %
24.04.2026 23:16 11,5 °C 10,0 °C 6,7 °C 73 % 1021,8 hPa 0,0 l/m² 0 min 0 W/m² 3,2 km/h (1 Bft) 94,74 %
24.04.2026 23:18 11,4 °C 10,0 °C 6,7 °C 74 % 1021,7 hPa 0,0 l/m² 0 min 0 W/m² 3,2 km/h (1 Bft) 95,74 %
24.04.2026 23:20 11,4 °C 10,0 °C 6,7 °C 74 % 1021,8 hPa 0,0 l/m² 0 min 0 W/m² 0,0 km/h (0 Bft) 95,65 %
24.04.2026 23:22 11,4 °C 10,0 °C 6,7 °C 75 % 1021,8 hPa 0,0 l/m² 0 min 0 W/m² 0,0 km/h (0 Bft) 94,00 %
24.04.2026 23:24 11,3 °C 10,0 °C 6,7 °C 75 % 1021,8 hPa 0,0 l/m² 0 min 0 W/m² 3,2 km/h (1 Bft) 97,87 %
24.04.2026 23:26 11,3 °C 10,0 °C 6,7 °C 75 % 1021,8 hPa 0,0 l/m² 0 min 0 W/m² 9,7 km/h (2 Bft) 95,74 %
24.04.2026 23:28 11,3 °C 9,4 °C 6,7 °C 75 % 1021,8 hPa 0,0 l/m² 0 min 0 W/m² 9,7 km/h (2 Bft) 95,74 %
24.04.2026 23:30 11,2 °C 9,4 °C 6,7 °C 76 % 1021,8 hPa 0,0 l/m² 0 min 0 W/m² 6,4 km/h (2 Bft) 95,74 %
24.04.2026 23:32 11,2 °C 9,4 °C 6,7 °C 76 % 1021,8 hPa 0,0 l/m² 0 min 0 W/m² 3,2 km/h (1 Bft) 93,62 %
24.04.2026 23:34 11,1 °C 9,4 °C 6,1 °C 76 % 1021,8 hPa 0,0 l/m² 0 min 0 W/m² 3,2 km/h (1 Bft) 97,87 %
24.04.2026 23:36 11,1 °C 9,4 °C 6,1 °C 77 % 1021,7 hPa 0,0 l/m² 0 min 0 W/m² 3,2 km/h (1 Bft) 95,65 %
24.04.2026 23:38 11,0 °C 9,4 °C 6,1 °C 77 % 1021,7 hPa 0,0 l/m² 0 min 0 W/m² 9,7 km/h (2 Bft) 94,00 %
24.04.2026 23:40 10,9 °C 9,4 °C 6,1 °C 77 % 1021,7 hPa 0,0 l/m² 0 min 0 W/m² 6,4 km/h (2 Bft) 95,74 %
24.04.2026 23:42 10,9 °C 9,4 °C 6,1 °C 78 % 1021,7 hPa 0,0 l/m² 0 min 0 W/m² 3,2 km/h (1 Bft) 97,87 %
24.04.2026 23:44 10,8 °C 9,4 °C 6,1 °C 78 % 1021,7 hPa 0,0 l/m² 0 min 0 W/m² 12,9 km/h (3 Bft) 97,87 %
24.04.2026 23:46 10,8 °C 9,4 °C 6,1 °C 79 % 1021,7 hPa 0,0 l/m² 0 min 0 W/m² 3,2 km/h (1 Bft) 97,87 %
24.04.2026 23:48 10,7 °C 9,4 °C 6,1 °C 79 % 1021,7 hPa 0,0 l/m² 0 min 0 W/m² 9,7 km/h (2 Bft) 95,74 %
24.04.2026 23:50 10,7 °C 9,4 °C 6,1 °C 79 % 1021,7 hPa 0,0 l/m² 0 min 0 W/m² 3,2 km/h (1 Bft) 97,83 %
24.04.2026 23:52 10,6 °C 9,4 °C 6,1 °C 80 % 1021,8 hPa 0,0 l/m² 0 min 0 W/m² 3,2 km/h (1 Bft) 100,00 %
24.04.2026 23:54 10,6 °C 9,4 °C 6,1 °C 80 % 1021,8 hPa 0,0 l/m² 0 min 0 W/m² 12,9 km/h (3 Bft) 97,87 %
24.04.2026 23:56 10,6 °C 9,4 °C 6,1 °C 80 % 1021,7 hPa 0,0 l/m² 0 min 0 W/m² 6,4 km/h (2 Bft) 100,00 %
24.04.2026 23:58 10,6 °C 9,4 °C 6,1 °C 81 % 1021,8 hPa 0,0 l/m² 0 min 0 W/m² 6,4 km/h (2 Bft) 100,00 %
_ Min-Zeit 06:16 04:26 04:50 17:00 19:22 - - - 00:22 00:24
Minimum _ 4,9 °C 3,9 °C 1,1 °C 41 % 1021,1 hPa - - - 0,0 km/h (0 Bft) 52,38 %
_ Max-Zeit 16:54 14:52 13:40 06:14 00:07 00:00 09:56 13:34 14:08 00:22
Maximum _ 20,9 °C 28,9 °C 21,1 °C 94 % 1026,8 hPa 0,0 l/m² 2 min 866 W/m² 29,0 km/h
NW (5 Bft)
100,00 %
Durchschnitt _ 12,0 °C 13,8 °C 8,7 °C 71 % 1024,1 hPa #0,0 l/m² #8:50 h 438 W/m² 9,4 km/h (2 Bft) 97,25 %
© 2026 W. Hausmann